PWSweather.com
Personal Weather Stations
Station Observations
KV9EWX
Winnebago, Il, Winnebago, IL 61088

Winnebago, IlWinnebago, IL 61088

Lat: 42.261175, Lon: -89.236369

Elevation: 892

Station Type: Lacrosse ws-2811

Latest ConditionsUpdated 9:13:56 AM CST Friday, Dec 2, 2016
Currently Today's Max Today's Min Today's Average
Temperature 28.4°F-2.0°C 29.9°F-1.2°C 28.3°F-2.1°C 28.9°F-1.7°C
Dew Point -48.4°F-44.7°C -47.5°F-44.2°C -48.5°F-44.7°C -48.1°F-44.5°C
Winds 1.9 mph NW3.1 kmh NW 5.9 mph WSW9.5 kmh WSW - 2.3 mph 3.7 kmh
Wind Gusts 6.0 mph9.7 kmh 11.0 mph17.7 kmh - -
Humidity 1% 1% 1% 1%
Pressure 29.76 in1007.8 mb 29.76 in1007.8 mb 29.62 in1003.0 mb -
Hour Temp Dew Point Humidity Winds Wind Gusts Pressure Precip Precip Rate Daily Precip Total
09:13 AM 28.4°F-2.0°C -48.4°F-44.7°C 1% 1.2 mph WNW1.9 kmh WNW 6.0 mph9.7 kmh 29.76 in1007.8 mb 0.00 in0.0 mm 0.00 in0.0 mm 0.00 in0.0 mm
09:12 AM 28.4°F-2.0°C -48.4°F-44.7°C 1% 1.1 mph WNW1.8 kmh WNW 6.0 mph9.7 kmh 29.76 in1007.8 mb 0.00 in0.0 mm 0.00 in0.0 mm 0.00 in0.0 mm
09:11 AM 28.4°F-2.0°C -48.4°F-44.7°C 1% 1.0 mph WNW1.6 kmh WNW 6.0 mph9.7 kmh 29.76 in1007.8 mb 0.00 in0.0 mm 0.00 in0.0 mm 0.00 in0.0 mm
09:10 AM 28.3°F-2.1°C -48.5°F-44.7°C 1% 0.9 mph NW1.4 kmh NW 6.0 mph9.7 kmh 29.76 in1007.8 mb 0.00 in0.0 mm 0.00 in0.0 mm 0.00 in0.0 mm
09:09 AM 28.3°F-2.1°C -48.5°F-44.7°C 1% 1.5 mph W2.4 kmh W 6.0 mph9.7 kmh 29.76 in1007.8 mb 0.00 in0.0 mm 0.00 in0.0 mm 0.00 in0.0 mm
09:08 AM 28.3°F-2.1°C -48.5°F-44.7°C 1% 1.7 mph W2.7 kmh W 6.0 mph9.7 kmh 29.76 in1007.8 mb 0.00 in0.0 mm 0.00 in0.0 mm 0.00 in0.0 mm
09:07 AM 28.4°F-2.0°C -48.4°F-44.7°C 1% 1.5 mph W2.4 kmh W 5.4 mph8.7 kmh 29.76 in1007.8 mb 0.00 in0.0 mm 0.00 in0.0 mm 0.00 in0.0 mm
09:06 AM 28.3°F-2.1°C -48.5°F-44.7°C 1% 1.9 mph W3.1 kmh W 5.4 mph8.7 kmh 29.76 in1007.8 mb 0.00 in0.0 mm 0.00 in0.0 mm 0.00 in0.0 mm
09:05 AM 28.4°F-2.0°C -48.4°F-44.7°C 1% 1.6 mph W2.6 kmh W 5.4 mph8.7 kmh 29.76 in1007.8 mb 0.00 in0.0 mm 0.00 in0.0 mm 0.00 in0.0 mm
09:04 AM 28.4°F-2.0°C -48.4°F-44.7°C 1% 1.4 mph WSW2.3 kmh WSW 5.4 mph8.7 kmh 29.76 in1007.8 mb 0.00 in0.0 mm 0.00 in0.0 mm 0.00 in0.0 mm
09:03 AM 28.4°F-2.0°C -48.4°F-44.7°C 1% 2.3 mph WNW3.7 kmh WNW 5.4 mph8.7 kmh 29.76 in1007.8 mb 0.00 in0.0 mm 0.00 in0.0 mm 0.00 in0.0 mm
09:02 AM 28.4°F-2.0°C -48.4°F-44.7°C 1% 3.3 mph WNW5.3 kmh WNW 5.4 mph8.7 kmh 29.76 in1007.8 mb 0.00 in0.0 mm 0.00 in0.0 mm 0.00 in0.0 mm
09:01 AM 28.4°F-2.0°C -48.4°F-44.7°C 1% 3.2 mph WNW5.1 kmh WNW 6.0 mph9.7 kmh 29.76 in1007.8 mb 0.00 in0.0 mm 0.00 in0.0 mm 0.00 in0.0 mm
09:00 AM 28.4°F-2.0°C -48.4°F-44.7°C 1% 2.1 mph WNW3.4 kmh WNW 6.0 mph9.7 kmh 29.76 in1007.8 mb 0.00 in0.0 mm 0.00 in0.0 mm 0.00 in0.0 mm
08:59 AM 28.6°F-1.9°C -48.3°F-44.6°C 1% 1.1 mph W1.8 kmh W 6.0 mph9.7 kmh 29.76 in1007.8 mb 0.00 in0.0 mm 0.00 in0.0 mm 0.00 in0.0 mm
08:58 AM 28.6°F-1.9°C -48.3°F-44.6°C 1% 3.1 mph W5.0 kmh W 6.0 mph9.7 kmh 29.76 in1007.8 mb 0.00 in0.0 mm 0.00 in0.0 mm 0.00 in0.0 mm
08:57 AM 28.6°F-1.9°C -48.3°F-44.6°C 1% 2.5 mph W4.0 kmh W 6.0 mph9.7 kmh 29.76 in1007.8 mb 0.00 in0.0 mm 0.00 in0.0 mm 0.00 in0.0 mm
08:56 AM 28.6°F-1.9°C -48.3°F-44.6°C 1% 1.3 mph WNW2.1 kmh WNW 6.0 mph9.7 kmh 29.76 in1007.8 mb 0.00 in0.0 mm 0.00 in0.0 mm 0.00 in0.0 mm
08:55 AM 28.6°F-1.9°C -48.3°F-44.6°C 1% 0.6 mph NW1.0 kmh NW 6.0 mph9.7 kmh 29.76 in1007.8 mb 0.00 in0.0 mm 0.00 in0.0 mm 0.00 in0.0 mm
08:54 AM 28.6°F-1.9°C -48.3°F-44.6°C 1% 0.9 mph W1.4 kmh W 6.0 mph9.7 kmh 29.76 in1007.8 mb 0.00 in0.0 mm 0.00 in0.0 mm 0.00 in0.0 mm
08:53 AM 28.6°F-1.9°C -48.3°F-44.6°C 1% 1.9 mph WNW3.1 kmh WNW 6.0 mph9.7 kmh 29.76 in1007.8 mb 0.00 in0.0 mm 0.00 in0.0 mm 0.00 in0.0 mm
08:52 AM 28.8°F-1.8°C -48.2°F-44.6°C 1% 2.9 mph WNW4.7 kmh WNW 6.0 mph9.7 kmh 29.76 in1007.8 mb 0.00 in0.0 mm 0.00 in0.0 mm 0.00 in0.0 mm
08:51 AM 29.0°F-1.7°C -48.1°F-44.5°C 1% 1.8 mph WNW2.9 kmh WNW 6.0 mph9.7 kmh 29.76 in1007.8 mb 0.00 in0.0 mm 0.00 in0.0 mm 0.00 in0.0 mm
08:50 AM 29.0°F-1.7°C -48.1°F-44.5°C 1% 1.2 mph WNW1.9 kmh WNW 4.4 mph7.1 kmh 29.76 in1007.8 mb 0.00 in0.0 mm 0.00 in0.0 mm 0.00 in0.0 mm
08:49 AM 29.0°F-1.7°C -48.1°F-44.5°C 1% 2.2 mph W3.5 kmh W 4.4 mph7.1 kmh 29.76 in1007.8 mb 0.00 in0.0 mm 0.00 in0.0 mm 0.00 in0.0 mm
08:48 AM 29.0°F-1.7°C -48.1°F-44.5°C 1% 2.2 mph WNW3.5 kmh WNW 4.4 mph7.1 kmh 29.76 in1007.8 mb 0.00 in0.0 mm 0.00 in0.0 mm 0.00 in0.0 mm
08:47 AM 29.0°F-1.7°C -48.1°F-44.5°C 1% 1.2 mph NW1.9 kmh NW 4.7 mph7.6 kmh 29.76 in1007.8 mb 0.00 in0.0 mm 0.00 in0.0 mm 0.00 in0.0 mm
08:46 AM 29.0°F-1.7°C -48.1°F-44.5°C 1% 1.0 mph WNW1.6 kmh WNW 4.7 mph7.6 kmh 29.76 in1007.8 mb 0.00 in0.0 mm 0.00 in0.0 mm 0.00 in0.0 mm
08:45 AM 29.2°F-1.6°C -47.9°F-44.4°C 1% 0.9 mph WNW1.4 kmh WNW 8.2 mph13.2 kmh 29.76 in1007.8 mb 0.00 in0.0 mm 0.00 in0.0 mm 0.00 in0.0 mm
08:44 AM 29.2°F-1.6°C -47.9°F-44.4°C 1% 0.9 mph WNW1.4 kmh WNW 8.2 mph13.2 kmh 29.76 in1007.8 mb 0.00 in0.0 mm 0.00 in0.0 mm 0.00 in0.0 mm
08:43 AM 29.3°F-1.5°C -47.9°F-44.4°C 1% 1.7 mph W2.7 kmh W 9.8 mph15.8 kmh 29.76 in1007.8 mb 0.00 in0.0 mm 0.00 in0.0 mm 0.00 in0.0 mm
08:42 AM 29.3°F-1.5°C -47.9°F-44.4°C 1% 1.6 mph W2.6 kmh W 9.8 mph15.8 kmh 29.76 in1007.8 mb 0.00 in0.0 mm 0.00 in0.0 mm 0.00 in0.0 mm
08:41 AM 29.3°F-1.5°C -47.9°F-44.4°C 1% 1.0 mph NNW1.6 kmh NNW 9.8 mph15.8 kmh 29.76 in1007.8 mb 0.00 in0.0 mm 0.00 in0.0 mm 0.00 in0.0 mm
08:40 AM 29.3°F-1.5°C -47.9°F-44.4°C 1% 1.6 mph NW2.6 kmh NW 9.8 mph15.8 kmh 29.76 in1007.8 mb 0.00 in0.0 mm 0.00 in0.0 mm 0.00 in0.0 mm
08:39 AM 29.5°F-1.4°C -47.7°F-44.3°C 1% 2.4 mph WNW3.9 kmh WNW 9.8 mph15.8 kmh 29.76 in1007.8 mb 0.00 in0.0 mm 0.00 in0.0 mm 0.00 in0.0 mm
08:38 AM 29.5°F-1.4°C -47.7°F-44.3°C 1% 2.6 mph NW4.2 kmh NW 9.8 mph15.8 kmh 29.76 in1007.8 mb 0.00 in0.0 mm 0.00 in0.0 mm 0.00 in0.0 mm
08:37 AM 29.7°F-1.3°C -47.6°F-44.2°C 1% 3.0 mph NW4.8 kmh NW 9.8 mph15.8 kmh 29.76 in1007.8 mb 0.00 in0.0 mm 0.00 in0.0 mm 0.00 in0.0 mm
08:36 AM 29.7°F-1.3°C -47.6°F-44.2°C 1% 3.6 mph WNW5.8 kmh WNW 9.8 mph15.8 kmh 29.76 in1007.8 mb 0.00 in0.0 mm 0.00 in0.0 mm 0.00 in0.0 mm
08:35 AM 29.7°F-1.3°C -47.6°F-44.2°C 1% 4.9 mph WNW7.9 kmh WNW 9.8 mph15.8 kmh 29.76 in1007.8 mb 0.00 in0.0 mm 0.00 in0.0 mm 0.00 in0.0 mm
08:34 AM 29.7°F-1.3°C -47.6°F-44.2°C 1% 5.2 mph NW8.4 kmh NW 9.8 mph15.8 kmh 29.76 in1007.8 mb 0.00 in0.0 mm 0.00 in0.0 mm 0.00 in0.0 mm
08:33 AM 29.9°F-1.2°C -47.5°F-44.2°C 1% 4.2 mph NW6.8 kmh NW 9.8 mph15.8 kmh 29.76 in1007.8 mb 0.00 in0.0 mm 0.00 in0.0 mm 0.00 in0.0 mm
08:32 AM 29.7°F-1.3°C -47.6°F-44.2°C 1% 3.1 mph NW5.0 kmh NW 6.0 mph9.7 kmh 29.76 in1007.8 mb 0.00 in0.0 mm 0.00 in0.0 mm 0.00 in0.0 mm
08:31 AM 29.7°F-1.3°C -47.6°F-44.2°C 1% 2.9 mph NW4.7 kmh NW 6.0 mph9.7 kmh 29.76 in1007.8 mb 0.00 in0.0 mm 0.00 in0.0 mm 0.00 in0.0 mm
08:30 AM 29.7°F-1.3°C -47.6°F-44.2°C 1% 2.3 mph NW3.7 kmh NW 6.0 mph9.7 kmh 29.76 in1007.8 mb 0.00 in0.0 mm 0.00 in0.0 mm 0.00 in0.0 mm
08:29 AM 29.7°F-1.3°C -47.6°F-44.2°C 1% 1.5 mph W2.4 kmh W 6.0 mph9.7 kmh 29.75 in1007.5 mb 0.00 in0.0 mm 0.00 in0.0 mm 0.00 in0.0 mm
08:28 AM 29.7°F-1.3°C -47.6°F-44.2°C 1% 1.5 mph W2.4 kmh W 6.0 mph9.7 kmh 29.75 in1007.5 mb 0.00 in0.0 mm 0.00 in0.0 mm 0.00 in0.0 mm
08:27 AM 29.7°F-1.3°C -47.6°F-44.2°C 1% 2.6 mph W4.2 kmh W 6.0 mph9.7 kmh 29.75 in1007.5 mb 0.00 in0.0 mm 0.00 in0.0 mm 0.00 in0.0 mm
08:26 AM 29.7°F-1.3°C -47.6°F-44.2°C 1% 3.0 mph W4.8 kmh W 6.0 mph9.7 kmh 29.75 in1007.5 mb 0.00 in0.0 mm 0.00 in0.0 mm 0.00 in0.0 mm
08:25 AM 29.7°F-1.3°C -47.6°F-44.2°C 1% 2.8 mph WSW4.5 kmh WSW 6.0 mph9.7 kmh 29.75 in1007.5 mb 0.00 in0.0 mm 0.00 in0.0 mm 0.00 in0.0 mm
08:24 AM 29.7°F-1.3°C -47.6°F-44.2°C 1% 1.9 mph SW3.1 kmh SW 4.4 mph7.1 kmh 29.75 in1007.5 mb 0.00 in0.0 mm 0.00 in0.0 mm 0.00 in0.0 mm
08:23 AM 29.7°F-1.3°C -47.6°F-44.2°C 1% 1.0 mph W1.6 kmh W 3.9 mph6.3 kmh 29.75 in1007.5 mb 0.00 in0.0 mm 0.00 in0.0 mm 0.00 in0.0 mm
08:22 AM 29.5°F-1.4°C -47.7°F-44.3°C 1% 0.9 mph W1.4 kmh W 6.0 mph9.7 kmh 29.75 in1007.5 mb 0.00 in0.0 mm 0.00 in0.0 mm 0.00 in0.0 mm
08:21 AM 29.5°F-1.4°C -47.7°F-44.3°C 1% 1.4 mph WSW2.3 kmh WSW 6.0 mph9.7 kmh 29.74 in1007.1 mb 0.00 in0.0 mm 0.00 in0.0 mm 0.00 in0.0 mm
08:20 AM 29.5°F-1.4°C -47.7°F-44.3°C 1% 1.6 mph WSW2.6 kmh WSW 6.0 mph9.7 kmh 29.74 in1007.1 mb 0.00 in0.0 mm 0.00 in0.0 mm 0.00 in0.0 mm
08:19 AM 29.5°F-1.4°C -47.7°F-44.3°C 1% 2.0 mph WSW3.2 kmh WSW 6.0 mph9.7 kmh 29.74 in1007.1 mb 0.00 in0.0 mm 0.00 in0.0 mm 0.00 in0.0 mm
08:18 AM 29.5°F-1.4°C -47.7°F-44.3°C 1% 2.4 mph WSW3.9 kmh WSW 6.0 mph9.7 kmh 29.75 in1007.5 mb 0.00 in0.0 mm 0.00 in0.0 mm 0.00 in0.0 mm
08:17 AM 29.5°F-1.4°C -47.7°F-44.3°C 1% 1.8 mph WSW2.9 kmh WSW 6.0 mph9.7 kmh 29.74 in1007.1 mb 0.00 in0.0 mm 0.00 in0.0 mm 0.00 in0.0 mm
08:16 AM 29.3°F-1.5°C -47.9°F-44.4°C 1% 1.9 mph WSW3.1 kmh WSW 6.0 mph9.7 kmh 29.75 in1007.5 mb 0.00 in0.0 mm 0.00 in0.0 mm 0.00 in0.0 mm
08:15 AM 29.3°F-1.5°C -47.9°F-44.4°C 1% 2.4 mph WSW3.9 kmh WSW 6.0 mph9.7 kmh 29.74 in1007.1 mb 0.00 in0.0 mm 0.00 in0.0 mm 0.00 in0.0 mm
08:14 AM 29.3°F-1.5°C -47.9°F-44.4°C 1% 2.8 mph WSW4.5 kmh WSW 6.7 mph10.8 kmh 29.74 in1007.1 mb 0.00 in0.0 mm 0.00 in0.0 mm 0.00 in0.0 mm
08:13 AM 29.3°F-1.5°C -47.9°F-44.4°C 1% 3.4 mph WSW5.5 kmh WSW 6.7 mph10.8 kmh 29.74 in1007.1 mb 0.00 in0.0 mm 0.00 in0.0 mm 0.00 in0.0 mm
08:12 AM 29.3°F-1.5°C -47.9°F-44.4°C 1% 3.5 mph WSW5.6 kmh WSW 6.7 mph10.8 kmh 29.74 in1007.1 mb 0.00 in0.0 mm 0.00 in0.0 mm 0.00 in0.0 mm
08:11 AM 29.3°F-1.5°C -47.9°F-44.4°C 1% 2.7 mph WSW4.3 kmh WSW 6.7 mph10.8 kmh 29.74 in1007.1 mb 0.00 in0.0 mm 0.00 in0.0 mm 0.00 in0.0 mm
08:10 AM 29.3°F-1.5°C -47.9°F-44.4°C 1% 1.3 mph WSW2.1 kmh WSW 6.7 mph10.8 kmh 29.74 in1007.1 mb 0.00 in0.0 mm 0.00 in0.0 mm 0.00 in0.0 mm
08:09 AM 29.3°F-1.5°C -47.9°F-44.4°C 1% 1.1 mph WSW1.8 kmh WSW 6.7 mph10.8 kmh 29.74 in1007.1 mb 0.00 in0.0 mm 0.00 in0.0 mm 0.00 in0.0 mm
08:08 AM 29.3°F-1.5°C -47.9°F-44.4°C 1% 1.6 mph WSW2.6 kmh WSW 6.7 mph10.8 kmh 29.74 in1007.1 mb 0.00 in0.0 mm 0.00 in0.0 mm 0.00 in0.0 mm
08:07 AM 29.3°F-1.5°C -47.9°F-44.4°C 1% 2.6 mph WSW4.2 kmh WSW 6.7 mph10.8 kmh 29.74 in1007.1 mb 0.00 in0.0 mm 0.00 in0.0 mm 0.00 in0.0 mm
08:06 AM 29.3°F-1.5°C -47.9°F-44.4°C 1% 3.8 mph WSW6.1 kmh WSW 6.7 mph10.8 kmh 29.74 in1007.1 mb 0.00 in0.0 mm 0.00 in0.0 mm 0.00 in0.0 mm
08:05 AM 29.2°F-1.6°C -47.9°F-44.4°C 1% 3.8 mph W6.1 kmh W 6.7 mph10.8 kmh 29.74 in1007.1 mb 0.00 in0.0 mm 0.00 in0.0 mm 0.00 in0.0 mm
08:04 AM 29.3°F-1.5°C -47.9°F-44.4°C 1% 3.0 mph WSW4.8 kmh WSW 5.1 mph8.2 kmh 29.74 in1007.1 mb 0.00 in0.0 mm 0.00 in0.0 mm 0.00 in0.0 mm
08:03 AM 29.2°F-1.6°C -47.9°F-44.4°C 1% 2.7 mph WSW4.3 kmh WSW 4.4 mph7.1 kmh 29.74 in1007.1 mb 0.00 in0.0 mm 0.00 in0.0 mm 0.00 in0.0 mm
08:02 AM 29.2°F-1.6°C -47.9°F-44.4°C 1% 2.3 mph WSW3.7 kmh WSW 5.1 mph8.2 kmh 29.74 in1007.1 mb 0.00 in0.0 mm 0.00 in0.0 mm 0.00 in0.0 mm
08:01 AM 29.2°F-1.6°C -47.9°F-44.4°C 1% 2.3 mph WSW3.7 kmh WSW 5.1 mph8.2 kmh 29.74 in1007.1 mb 0.00 in0.0 mm 0.00 in0.0 mm 0.00 in0.0 mm
08:00 AM 29.2°F-1.6°C -47.9°F-44.4°C 1% 1.8 mph WSW2.9 kmh WSW 5.4 mph8.7 kmh 29.74 in1007.1 mb 0.00 in0.0 mm 0.00 in0.0 mm 0.00 in0.0 mm
07:59 AM 29.2°F-1.6°C -47.9°F-44.4°C 1% 1.4 mph SW2.3 kmh SW 5.4 mph8.7 kmh 29.74 in1007.1 mb 0.00 in0.0 mm 0.00 in0.0 mm 0.00 in0.0 mm
07:58 AM 29.2°F-1.6°C -47.9°F-44.4°C 1% 2.2 mph WSW3.5 kmh WSW 6.0 mph9.7 kmh 29.74 in1007.1 mb 0.00 in0.0 mm 0.00 in0.0 mm 0.00 in0.0 mm
07:57 AM 29.0°F-1.7°C -48.1°F-44.5°C 1% 2.1 mph WSW3.4 kmh WSW 6.7 mph10.8 kmh 29.74 in1007.1 mb 0.00 in0.0 mm 0.00 in0.0 mm 0.00 in0.0 mm
07:56 AM 29.2°F-1.6°C -47.9°F-44.4°C 1% 1.4 mph W2.3 kmh W 6.7 mph10.8 kmh 29.74 in1007.1 mb 0.00 in0.0 mm 0.00 in0.0 mm 0.00 in0.0 mm
07:55 AM 29.0°F-1.7°C -48.1°F-44.5°C 1% 1.3 mph W2.1 kmh W 6.7 mph10.8 kmh 29.74 in1007.1 mb 0.00 in0.0 mm 0.00 in0.0 mm 0.00 in0.0 mm
07:54 AM 29.0°F-1.7°C -48.1°F-44.5°C 1% 2.2 mph WSW3.5 kmh WSW 6.7 mph10.8 kmh 29.74 in1007.1 mb 0.00 in0.0 mm 0.00 in0.0 mm 0.00 in0.0 mm
07:53 AM 29.0°F-1.7°C -48.1°F-44.5°C 1% 2.8 mph W4.5 kmh W 6.7 mph10.8 kmh 29.74 in1007.1 mb 0.00 in0.0 mm 0.00 in0.0 mm 0.00 in0.0 mm
07:52 AM 29.0°F-1.7°C -48.1°F-44.5°C 1% 3.2 mph W5.1 kmh W 6.7 mph10.8 kmh 29.74 in1007.1 mb 0.00 in0.0 mm 0.00 in0.0 mm 0.00 in0.0 mm
07:51 AM 29.0°F-1.7°C -48.1°F-44.5°C 1% 3.1 mph W5.0 kmh W 6.7 mph10.8 kmh 29.74 in1007.1 mb 0.00 in0.0 mm 0.00 in0.0 mm 0.00 in0.0 mm
07:50 AM 29.0°F-1.7°C -48.1°F-44.5°C 1% 2.8 mph WSW4.5 kmh WSW 6.7 mph10.8 kmh 29.74 in1007.1 mb 0.00 in0.0 mm 0.00 in0.0 mm 0.00 in0.0 mm
07:49 AM 29.0°F-1.7°C -48.1°F-44.5°C 1% 3.1 mph WSW5.0 kmh WSW 6.7 mph10.8 kmh 29.74 in1007.1 mb 0.00 in0.0 mm 0.00 in0.0 mm 0.00 in0.0 mm
07:48 AM 29.0°F-1.7°C -48.1°F-44.5°C 1% 2.4 mph WSW3.9 kmh WSW 6.7 mph10.8 kmh 29.74 in1007.1 mb 0.00 in0.0 mm 0.00 in0.0 mm 0.00 in0.0 mm
07:47 AM 29.0°F-1.7°C -48.1°F-44.5°C 1% 1.2 mph WSW1.9 kmh WSW 5.1 mph8.2 kmh 29.74 in1007.1 mb 0.00 in0.0 mm 0.00 in0.0 mm 0.00 in0.0 mm
07:46 AM 29.0°F-1.7°C -48.1°F-44.5°C 1% 1.5 mph WSW2.4 kmh WSW 5.1 mph8.2 kmh 29.74 in1007.1 mb 0.00 in0.0 mm 0.00 in0.0 mm 0.00 in0.0 mm
07:45 AM 29.0°F-1.7°C -48.1°F-44.5°C 1% 2.3 mph WSW3.7 kmh WSW 5.1 mph8.2 kmh 29.74 in1007.1 mb 0.00 in0.0 mm 0.00 in0.0 mm 0.00 in0.0 mm
07:44 AM 29.0°F-1.7°C -48.1°F-44.5°C 1% 2.6 mph W4.2 kmh W 5.1 mph8.2 kmh 29.73 in1006.8 mb 0.00 in0.0 mm 0.00 in0.0 mm 0.00 in0.0 mm
07:43 AM 29.0°F-1.7°C -48.1°F-44.5°C 1% 1.8 mph W2.9 kmh W 5.1 mph8.2 kmh 29.74 in1007.1 mb 0.00 in0.0 mm 0.00 in0.0 mm 0.00 in0.0 mm
07:42 AM 29.0°F-1.7°C -48.1°F-44.5°C 1% 1.6 mph WSW2.6 kmh WSW 5.1 mph8.2 kmh 29.74 in1007.1 mb 0.00 in0.0 mm 0.00 in0.0 mm 0.00 in0.0 mm
07:41 AM 29.0°F-1.7°C -48.1°F-44.5°C 1% 2.9 mph WSW4.7 kmh WSW 5.1 mph8.2 kmh 29.73 in1006.8 mb 0.00 in0.0 mm 0.00 in0.0 mm 0.00 in0.0 mm
07:40 AM 29.0°F-1.7°C -48.1°F-44.5°C 1% 3.2 mph WSW5.1 kmh WSW 5.1 mph8.2 kmh 29.73 in1006.8 mb 0.00 in0.0 mm 0.00 in0.0 mm 0.00 in0.0 mm
07:39 AM 29.0°F-1.7°C -48.1°F-44.5°C 1% 2.6 mph WSW4.2 kmh WSW 4.4 mph7.1 kmh 29.73 in1006.8 mb 0.00 in0.0 mm 0.00 in0.0 mm 0.00 in0.0 mm
07:38 AM 29.0°F-1.7°C -48.1°F-44.5°C 1% 2.3 mph W3.7 kmh W 4.4 mph7.1 kmh 29.73 in1006.8 mb 0.00 in0.0 mm 0.00 in0.0 mm 0.00 in0.0 mm
07:37 AM 29.0°F-1.7°C -48.1°F-44.5°C 1% 1.6 mph W2.6 kmh W 4.4 mph7.1 kmh 29.73 in1006.8 mb 0.00 in0.0 mm 0.00 in0.0 mm 0.00 in0.0 mm
07:36 AM 29.0°F-1.7°C -48.1°F-44.5°C 1% 1.6 mph WSW2.6 kmh WSW 4.4 mph7.1 kmh 29.73 in1006.8 mb 0.00 in0.0 mm 0.00 in0.0 mm 0.00 in0.0 mm
07:35 AM 29.0°F-1.7°C -48.1°F-44.5°C 1% 2.3 mph WSW3.7 kmh WSW 4.4 mph7.1 kmh 29.73 in1006.8 mb 0.00 in0.0 mm 0.00 in0.0 mm 0.00 in0.0 mm
07:34 AM 29.0°F-1.7°C -48.1°F-44.5°C 1% 1.7 mph WSW2.7 kmh WSW 4.4 mph7.1 kmh 29.73 in1006.8 mb 0.00 in0.0 mm 0.00 in0.0 mm 0.00 in0.0 mm
07:33 AM 29.0°F-1.7°C -48.1°F-44.5°C 1% 1.2 mph WSW1.9 kmh WSW 4.4 mph7.1 kmh 29.73 in1006.8 mb 0.00 in0.0 mm 0.00 in0.0 mm 0.00 in0.0 mm
07:32 AM 29.0°F-1.7°C -48.1°F-44.5°C 1% 1.6 mph WSW2.6 kmh WSW 4.4 mph7.1 kmh 29.73 in1006.8 mb 0.00 in0.0 mm 0.00 in0.0 mm 0.00 in0.0 mm
07:31 AM 29.0°F-1.7°C -48.1°F-44.5°C 1% 2.2 mph WSW3.5 kmh WSW 4.4 mph7.1 kmh 29.73 in1006.8 mb 0.00 in0.0 mm 0.00 in0.0 mm 0.00 in0.0 mm
07:30 AM 29.0°F-1.7°C -48.1°F-44.5°C 1% 1.6 mph WSW2.6 kmh WSW 4.4 mph7.1 kmh 29.73 in1006.8 mb 0.00 in0.0 mm 0.00 in0.0 mm 0.00 in0.0 mm
07:29 AM 29.0°F-1.7°C -48.1°F-44.5°C 1% 1.9 mph WNW3.1 kmh WNW 3.9 mph6.3 kmh 29.73 in1006.8 mb 0.00 in0.0 mm 0.00 in0.0 mm 0.00 in0.0 mm
07:28 AM 29.0°F-1.7°C -48.1°F-44.5°C 1% 2.0 mph WNW3.2 kmh WNW 4.4 mph7.1 kmh 29.73 in1006.8 mb 0.00 in0.0 mm 0.00 in0.0 mm 0.00 in0.0 mm
07:27 AM 29.0°F-1.7°C -48.1°F-44.5°C 1% 1.4 mph WSW2.3 kmh WSW 6.3 mph10.1 kmh 29.73 in1006.8 mb 0.00 in0.0 mm 0.00 in0.0 mm 0.00 in0.0 mm
07:26 AM 29.0°F-1.7°C -48.1°F-44.5°C 1% 1.2 mph WSW1.9 kmh WSW 6.3 mph10.1 kmh 29.72 in1006.4 mb 0.00 in0.0 mm 0.00 in0.0 mm 0.00 in0.0 mm
07:25 AM 29.0°F-1.7°C -48.1°F-44.5°C 1% 1.3 mph WSW2.1 kmh WSW 6.3 mph10.1 kmh 29.73 in1006.8 mb 0.00 in0.0 mm 0.00 in0.0 mm 0.00 in0.0 mm
07:24 AM 29.0°F-1.7°C -48.1°F-44.5°C 1% 1.6 mph WSW2.6 kmh WSW 6.3 mph10.1 kmh 29.73 in1006.8 mb 0.00 in0.0 mm 0.00 in0.0 mm 0.00 in0.0 mm
07:23 AM 29.0°F-1.7°C -48.1°F-44.5°C 1% 1.5 mph WSW2.4 kmh WSW 6.3 mph10.1 kmh 29.72 in1006.4 mb 0.00 in0.0 mm 0.00 in0.0 mm 0.00 in0.0 mm
07:22 AM 29.0°F-1.7°C -48.1°F-44.5°C 1% 0.8 mph SW1.3 kmh SW 6.3 mph10.1 kmh 29.72 in1006.4 mb 0.00 in0.0 mm 0.00 in0.0 mm 0.00 in0.0 mm
07:21 AM 29.0°F-1.7°C -48.1°F-44.5°C 1% 1.0 mph WSW1.6 kmh WSW 6.3 mph10.1 kmh 29.72 in1006.4 mb 0.00 in0.0 mm 0.00 in0.0 mm 0.00 in0.0 mm
07:20 AM 29.0°F-1.7°C -48.1°F-44.5°C 1% 1.7 mph WSW2.7 kmh WSW 6.3 mph10.1 kmh 29.72 in1006.4 mb 0.00 in0.0 mm 0.00 in0.0 mm 0.00 in0.0 mm
07:19 AM 29.0°F-1.7°C -48.1°F-44.5°C 1% 3.5 mph WSW5.6 kmh WSW 6.3 mph10.1 kmh 29.72 in1006.4 mb 0.00 in0.0 mm 0.00 in0.0 mm 0.00 in0.0 mm
07:18 AM 29.0°F-1.7°C -48.1°F-44.5°C 1% 3.4 mph WSW5.5 kmh WSW 6.3 mph10.1 kmh 29.72 in1006.4 mb 0.00 in0.0 mm 0.00 in0.0 mm 0.00 in0.0 mm
07:17 AM 29.0°F-1.7°C -48.1°F-44.5°C 1% 2.0 mph WSW3.2 kmh WSW 6.3 mph10.1 kmh 29.72 in1006.4 mb 0.00 in0.0 mm 0.00 in0.0 mm 0.00 in0.0 mm
07:16 AM 29.0°F-1.7°C -48.1°F-44.5°C 1% 2.2 mph W3.5 kmh W 6.0 mph9.7 kmh 29.72 in1006.4 mb 0.00 in0.0 mm 0.00 in0.0 mm 0.00 in0.0 mm
07:15 AM 29.0°F-1.7°C -48.1°F-44.5°C 1% 2.7 mph W4.3 kmh W 6.0 mph9.7 kmh 29.72 in1006.4 mb 0.00 in0.0 mm 0.00 in0.0 mm 0.00 in0.0 mm
07:14 AM 29.0°F-1.7°C -48.1°F-44.5°C 1% 2.7 mph W4.3 kmh W 6.0 mph9.7 kmh 29.72 in1006.4 mb 0.00 in0.0 mm 0.00 in0.0 mm 0.00 in0.0 mm
07:13 AM 29.0°F-1.7°C -48.1°F-44.5°C 1% 2.7 mph WSW4.3 kmh WSW 6.0 mph9.7 kmh 29.72 in1006.4 mb 0.00 in0.0 mm 0.00 in0.0 mm 0.00 in0.0 mm
07:12 AM 29.0°F-1.7°C -48.1°F-44.5°C 1% 2.9 mph WSW4.7 kmh WSW 6.0 mph9.7 kmh 29.72 in1006.4 mb 0.00 in0.0 mm 0.00 in0.0 mm 0.00 in0.0 mm
07:11 AM 29.0°F-1.7°C -48.1°F-44.5°C 1% 3.4 mph WSW5.5 kmh WSW 6.0 mph9.7 kmh 29.72 in1006.4 mb 0.00 in0.0 mm 0.00 in0.0 mm 0.00 in0.0 mm
07:10 AM 29.0°F-1.7°C -48.1°F-44.5°C 1% 3.8 mph WSW6.1 kmh WSW 6.0 mph9.7 kmh 29.72 in1006.4 mb 0.00 in0.0 mm 0.00 in0.0 mm 0.00 in0.0 mm
07:09 AM 29.0°F-1.7°C -48.1°F-44.5°C 1% 2.7 mph WSW4.3 kmh WSW 6.7 mph10.8 kmh 29.72 in1006.4 mb 0.00 in0.0 mm 0.00 in0.0 mm 0.00 in0.0 mm
07:08 AM 29.0°F-1.7°C -48.1°F-44.5°C 1% 1.8 mph W2.9 kmh W 6.7 mph10.8 kmh 29.72 in1006.4 mb 0.00 in0.0 mm 0.00 in0.0 mm 0.00 in0.0 mm
07:07 AM 29.0°F-1.7°C -48.1°F-44.5°C 1% 2.5 mph W4.0 kmh W 6.7 mph10.8 kmh 29.72 in1006.4 mb 0.00 in0.0 mm 0.00 in0.0 mm 0.00 in0.0 mm
07:06 AM 29.0°F-1.7°C -48.1°F-44.5°C 1% 2.1 mph W3.4 kmh W 6.7 mph10.8 kmh 29.72 in1006.4 mb 0.00 in0.0 mm 0.00 in0.0 mm 0.00 in0.0 mm
07:05 AM 29.0°F-1.7°C -48.1°F-44.5°C 1% 1.6 mph SW2.6 kmh SW 6.7 mph10.8 kmh 29.72 in1006.4 mb 0.00 in0.0 mm 0.00 in0.0 mm 0.00 in0.0 mm
07:04 AM 29.0°F-1.7°C -48.1°F-44.5°C 1% 1.7 mph WSW2.7 kmh WSW 6.7 mph10.8 kmh 29.72 in1006.4 mb 0.00 in0.0 mm 0.00 in0.0 mm 0.00 in0.0 mm
07:03 AM 29.0°F-1.7°C -48.1°F-44.5°C 1% 1.8 mph WSW2.9 kmh WSW 6.7 mph10.8 kmh 29.72 in1006.4 mb 0.00 in0.0 mm 0.00 in0.0 mm 0.00 in0.0 mm
07:02 AM 29.0°F-1.7°C -48.1°F-44.5°C 1% 2.3 mph W3.7 kmh W 6.7 mph10.8 kmh 29.72 in1006.4 mb 0.00 in0.0 mm 0.00 in0.0 mm 0.00 in0.0 mm
07:01 AM 29.0°F-1.7°C -48.1°F-44.5°C 1% 2.9 mph W4.7 kmh W 6.7 mph10.8 kmh 29.72 in1006.4 mb 0.00 in0.0 mm 0.00 in0.0 mm 0.00 in0.0 mm
07:00 AM 29.0°F-1.7°C -48.1°F-44.5°C 1% 2.3 mph W3.7 kmh W 6.7 mph10.8 kmh 29.72 in1006.4 mb 0.00 in0.0 mm 0.00 in0.0 mm 0.00 in0.0 mm
06:59 AM 29.0°F-1.7°C -48.1°F-44.5°C 1% 1.9 mph W3.1 kmh W 6.7 mph10.8 kmh 29.72 in1006.4 mb 0.00 in0.0 mm 0.00 in0.0 mm 0.00 in0.0 mm
06:58 AM 29.0°F-1.7°C -48.1°F-44.5°C 1% 1.4 mph WSW2.3 kmh WSW 5.4 mph8.7 kmh 29.72 in1006.4 mb 0.00 in0.0 mm 0.00 in0.0 mm 0.00 in0.0 mm
06:57 AM 29.0°F-1.7°C -48.1°F-44.5°C 1% 1.8 mph WSW2.9 kmh WSW 5.4 mph8.7 kmh 29.72 in1006.4 mb 0.00 in0.0 mm 0.00 in0.0 mm 0.00 in0.0 mm
06:56 AM 29.0°F-1.7°C -48.1°F-44.5°C 1% 2.2 mph WSW3.5 kmh WSW 5.4 mph8.7 kmh 29.72 in1006.4 mb 0.00 in0.0 mm 0.00 in0.0 mm 0.00 in0.0 mm
06:55 AM 29.0°F-1.7°C -48.1°F-44.5°C 1% 2.7 mph WSW4.3 kmh WSW 5.4 mph8.7 kmh 29.72 in1006.4 mb 0.00 in0.0 mm 0.00 in0.0 mm 0.00 in0.0 mm
06:54 AM 29.0°F-1.7°C -48.1°F-44.5°C 1% 3.1 mph WSW5.0 kmh WSW 5.4 mph8.7 kmh 29.71 in1006.1 mb 0.00 in0.0 mm 0.00 in0.0 mm 0.00 in0.0 mm
06:53 AM 29.0°F-1.7°C -48.1°F-44.5°C 1% 3.3 mph W5.3 kmh W 5.4 mph8.7 kmh 29.71 in1006.1 mb 0.00 in0.0 mm 0.00 in0.0 mm 0.00 in0.0 mm
06:52 AM 29.0°F-1.7°C -48.1°F-44.5°C 1% 2.4 mph WSW3.9 kmh WSW 5.1 mph8.2 kmh 29.71 in1006.1 mb 0.00 in0.0 mm 0.00 in0.0 mm 0.00 in0.0 mm
06:51 AM 29.0°F-1.7°C -48.1°F-44.5°C 1% 2.3 mph WSW3.7 kmh WSW 4.7 mph7.6 kmh 29.72 in1006.4 mb 0.00 in0.0 mm 0.00 in0.0 mm 0.00 in0.0 mm
06:50 AM 29.0°F-1.7°C -48.1°F-44.5°C 1% 2.3 mph WSW3.7 kmh WSW 4.7 mph7.6 kmh 29.71 in1006.1 mb 0.00 in0.0 mm 0.00 in0.0 mm 0.00 in0.0 mm
06:49 AM 29.0°F-1.7°C -48.1°F-44.5°C 1% 1.5 mph W2.4 kmh W 6.0 mph9.7 kmh 29.71 in1006.1 mb 0.00 in0.0 mm 0.00 in0.0 mm 0.00 in0.0 mm
06:48 AM 29.0°F-1.7°C -48.1°F-44.5°C 1% 1.9 mph W3.1 kmh W 6.7 mph10.8 kmh 29.71 in1006.1 mb 0.00 in0.0 mm 0.00 in0.0 mm 0.00 in0.0 mm
06:47 AM 29.0°F-1.7°C -48.1°F-44.5°C 1% 2.8 mph WSW4.5 kmh WSW 6.7 mph10.8 kmh 29.71 in1006.1 mb 0.00 in0.0 mm 0.00 in0.0 mm 0.00 in0.0 mm
06:46 AM 29.0°F-1.7°C -48.1°F-44.5°C 1% 2.3 mph WSW3.7 kmh WSW 6.7 mph10.8 kmh 29.71 in1006.1 mb 0.00 in0.0 mm 0.00 in0.0 mm 0.00 in0.0 mm
06:45 AM 29.0°F-1.7°C -48.1°F-44.5°C 1% 1.6 mph WSW2.6 kmh WSW 6.7 mph10.8 kmh 29.71 in1006.1 mb 0.00 in0.0 mm 0.00 in0.0 mm 0.00 in0.0 mm
06:44 AM 29.0°F-1.7°C -48.1°F-44.5°C 1% 1.9 mph WSW3.1 kmh WSW 6.7 mph10.8 kmh 29.71 in1006.1 mb 0.00 in0.0 mm 0.00 in0.0 mm 0.00 in0.0 mm
06:43 AM 29.0°F-1.7°C -48.1°F-44.5°C 1% 2.6 mph WSW4.2 kmh WSW 6.7 mph10.8 kmh 29.71 in1006.1 mb 0.00 in0.0 mm 0.00 in0.0 mm 0.00 in0.0 mm
06:42 AM 29.0°F-1.7°C -48.1°F-44.5°C 1% 3.1 mph WSW5.0 kmh WSW 6.7 mph10.8 kmh 29.71 in1006.1 mb 0.00 in0.0 mm 0.00 in0.0 mm 0.00 in0.0 mm
06:41 AM 29.0°F-1.7°C -48.1°F-44.5°C 1% 3.4 mph WSW5.5 kmh WSW 6.7 mph10.8 kmh 29.71 in1006.1 mb 0.00 in0.0 mm 0.00 in0.0 mm 0.00 in0.0 mm
06:40 AM 29.0°F-1.7°C -48.1°F-44.5°C 1% 3.9 mph WSW6.3 kmh WSW 6.7 mph10.8 kmh 29.71 in1006.1 mb 0.00 in0.0 mm 0.00 in0.0 mm 0.00 in0.0 mm
06:39 AM 29.0°F-1.7°C -48.1°F-44.5°C 1% 3.5 mph WSW5.6 kmh WSW 6.7 mph10.8 kmh 29.71 in1006.1 mb 0.00 in0.0 mm 0.00 in0.0 mm 0.00 in0.0 mm
06:38 AM 29.0°F-1.7°C -48.1°F-44.5°C 1% 2.7 mph WSW4.3 kmh WSW 6.3 mph10.1 kmh 29.71 in1006.1 mb 0.00 in0.0 mm 0.00 in0.0 mm 0.00 in0.0 mm
06:37 AM 29.0°F-1.7°C -48.1°F-44.5°C 1% 2.8 mph WSW4.5 kmh WSW 6.3 mph10.1 kmh 29.71 in1006.1 mb 0.00 in0.0 mm 0.00 in0.0 mm 0.00 in0.0 mm
06:36 AM 29.0°F-1.7°C -48.1°F-44.5°C 1% 3.1 mph WSW5.0 kmh WSW 6.7 mph10.8 kmh 29.71 in1006.1 mb 0.00 in0.0 mm 0.00 in0.0 mm 0.00 in0.0 mm
06:35 AM 29.0°F-1.7°C -48.1°F-44.5°C 1% 1.9 mph WSW3.1 kmh WSW 6.7 mph10.8 kmh 29.71 in1006.1 mb 0.00 in0.0 mm 0.00 in0.0 mm 0.00 in0.0 mm
06:34 AM 29.0°F-1.7°C -48.1°F-44.5°C 1% 1.3 mph WSW2.1 kmh WSW 6.7 mph10.8 kmh 29.71 in1006.1 mb 0.00 in0.0 mm 0.00 in0.0 mm 0.00 in0.0 mm
06:33 AM 29.0°F-1.7°C -48.1°F-44.5°C 1% 2.0 mph WSW3.2 kmh WSW 6.7 mph10.8 kmh 29.71 in1006.1 mb 0.00 in0.0 mm 0.00 in0.0 mm 0.00 in0.0 mm
06:32 AM 29.0°F-1.7°C -48.1°F-44.5°C 1% 2.2 mph WSW3.5 kmh WSW 6.7 mph10.8 kmh 29.71 in1006.1 mb 0.00 in0.0 mm 0.00 in0.0 mm 0.00 in0.0 mm
06:31 AM 29.0°F-1.7°C -48.1°F-44.5°C 1% 2.2 mph WSW3.5 kmh WSW 6.7 mph10.8 kmh 29.71 in1006.1 mb 0.00 in0.0 mm 0.00 in0.0 mm 0.00 in0.0 mm
06:30 AM 29.0°F-1.7°C -48.1°F-44.5°C 1% 1.9 mph WSW3.1 kmh WSW 6.7 mph10.8 kmh 29.71 in1006.1 mb 0.00 in0.0 mm 0.00 in0.0 mm 0.00 in0.0 mm
06:29 AM 29.0°F-1.7°C -48.1°F-44.5°C 1% 2.0 mph WSW3.2 kmh WSW 6.7 mph10.8 kmh 29.71 in1006.1 mb 0.00 in0.0 mm 0.00 in0.0 mm 0.00 in0.0 mm
06:28 AM 29.0°F-1.7°C -48.1°F-44.5°C 1% 3.3 mph W5.3 kmh W 6.7 mph10.8 kmh 29.71 in1006.1 mb 0.00 in0.0 mm 0.00 in0.0 mm 0.00 in0.0 mm
06:27 AM 29.0°F-1.7°C -48.1°F-44.5°C 1% 3.6 mph W5.8 kmh W 6.7 mph10.8 kmh 29.71 in1006.1 mb 0.00 in0.0 mm 0.00 in0.0 mm 0.00 in0.0 mm
06:26 AM 29.0°F-1.7°C -48.1°F-44.5°C 1% 3.1 mph WSW5.0 kmh WSW 6.7 mph10.8 kmh 29.71 in1006.1 mb 0.00 in0.0 mm 0.00 in0.0 mm 0.00 in0.0 mm
06:25 AM 29.0°F-1.7°C -48.1°F-44.5°C 1% 3.5 mph WSW5.6 kmh WSW 6.0 mph9.7 kmh 29.71 in1006.1 mb 0.00 in0.0 mm 0.00 in0.0 mm 0.00 in0.0 mm
06:24 AM 29.0°F-1.7°C -48.1°F-44.5°C 1% 3.6 mph W5.8 kmh W 6.0 mph9.7 kmh 29.71 in1006.1 mb 0.00 in0.0 mm 0.00 in0.0 mm 0.00 in0.0 mm
06:23 AM 29.0°F-1.7°C -48.1°F-44.5°C 1% 2.5 mph WSW4.0 kmh WSW 6.0 mph9.7 kmh 29.70 in1005.8 mb 0.00 in0.0 mm 0.00 in0.0 mm 0.00 in0.0 mm
06:22 AM 29.0°F-1.7°C -48.1°F-44.5°C 1% 2.2 mph WSW3.5 kmh WSW 6.0 mph9.7 kmh 29.70 in1005.8 mb 0.00 in0.0 mm 0.00 in0.0 mm 0.00 in0.0 mm
06:21 AM 29.0°F-1.7°C -48.1°F-44.5°C 1% 3.2 mph WSW5.1 kmh WSW 6.0 mph9.7 kmh 29.70 in1005.8 mb 0.00 in0.0 mm 0.00 in0.0 mm 0.00 in0.0 mm
06:20 AM 29.0°F-1.7°C -48.1°F-44.5°C 1% 3.1 mph WSW5.0 kmh WSW 6.0 mph9.7 kmh 29.70 in1005.8 mb 0.00 in0.0 mm 0.00 in0.0 mm 0.00 in0.0 mm
06:19 AM 29.0°F-1.7°C -48.1°F-44.5°C 1% 2.4 mph WSW3.9 kmh WSW 6.0 mph9.7 kmh 29.70 in1005.8 mb 0.00 in0.0 mm 0.00 in0.0 mm 0.00 in0.0 mm
06:18 AM 29.0°F-1.7°C -48.1°F-44.5°C 1% 2.0 mph WSW3.2 kmh WSW 6.0 mph9.7 kmh 29.70 in1005.8 mb 0.00 in0.0 mm 0.00 in0.0 mm 0.00 in0.0 mm
06:17 AM 29.0°F-1.7°C -48.1°F-44.5°C 1% 2.4 mph WSW3.9 kmh WSW 6.0 mph9.7 kmh 29.70 in1005.8 mb 0.00 in0.0 mm 0.00 in0.0 mm 0.00 in0.0 mm
06:16 AM 29.0°F-1.7°C -48.1°F-44.5°C 1% 2.4 mph WSW3.9 kmh WSW 6.0 mph9.7 kmh 29.70 in1005.8 mb 0.00 in0.0 mm 0.00 in0.0 mm 0.00 in0.0 mm
06:15 AM 29.0°F-1.7°C -48.1°F-44.5°C 1% 1.3 mph SW2.1 kmh SW 6.0 mph9.7 kmh 29.70 in1005.8 mb 0.00 in0.0 mm 0.00 in0.0 mm 0.00 in0.0 mm
06:14 AM 29.0°F-1.7°C -48.1°F-44.5°C 1% 2.1 mph SW3.4 kmh SW 6.0 mph9.7 kmh 29.70 in1005.8 mb 0.00 in0.0 mm 0.00 in0.0 mm 0.00 in0.0 mm
06:13 AM 29.0°F-1.7°C -48.1°F-44.5°C 1% 1.9 mph SW3.1 kmh SW 6.0 mph9.7 kmh 29.70 in1005.8 mb 0.00 in0.0 mm 0.00 in0.0 mm 0.00 in0.0 mm
06:12 AM 29.0°F-1.7°C -48.1°F-44.5°C 1% 1.0 mph WSW1.6 kmh WSW 6.0 mph9.7 kmh 29.70 in1005.8 mb 0.00 in0.0 mm 0.00 in0.0 mm 0.00 in0.0 mm
06:11 AM 29.0°F-1.7°C -48.1°F-44.5°C 1% 1.2 mph SW1.9 kmh SW 6.0 mph9.7 kmh 29.70 in1005.8 mb 0.00 in0.0 mm 0.00 in0.0 mm 0.00 in0.0 mm
06:10 AM 29.0°F-1.7°C -48.1°F-44.5°C 1% 1.8 mph SW2.9 kmh SW 6.0 mph9.7 kmh 29.70 in1005.8 mb 0.00 in0.0 mm 0.00 in0.0 mm 0.00 in0.0 mm
06:09 AM 29.0°F-1.7°C -48.1°F-44.5°C 1% 2.7 mph WSW4.3 kmh WSW 6.0 mph9.7 kmh 29.70 in1005.8 mb 0.00 in0.0 mm 0.00 in0.0 mm 0.00 in0.0 mm
06:08 AM 29.0°F-1.7°C -48.1°F-44.5°C 1% 2.8 mph W4.5 kmh W 6.0 mph9.7 kmh 29.70 in1005.8 mb 0.00 in0.0 mm 0.00 in0.0 mm 0.00 in0.0 mm
06:07 AM 29.0°F-1.7°C -48.1°F-44.5°C 1% 2.6 mph WSW4.2 kmh WSW 6.0 mph9.7 kmh 29.70 in1005.8 mb 0.00 in0.0 mm 0.00 in0.0 mm 0.00 in0.0 mm
06:06 AM 29.0°F-1.7°C -48.1°F-44.5°C 1% 2.2 mph WSW3.5 kmh WSW 6.0 mph9.7 kmh 29.70 in1005.8 mb 0.00 in0.0 mm 0.00 in0.0 mm 0.00 in0.0 mm
06:05 AM 29.0°F-1.7°C -48.1°F-44.5°C 1% 1.4 mph WSW2.3 kmh WSW 6.0 mph9.7 kmh 29.70 in1005.8 mb 0.00 in0.0 mm 0.00 in0.0 mm 0.00 in0.0 mm
06:04 AM 29.0°F-1.7°C -48.1°F-44.5°C 1% 1.9 mph SW3.1 kmh SW 6.0 mph9.7 kmh 29.70 in1005.8 mb 0.00 in0.0 mm 0.00 in0.0 mm 0.00 in0.0 mm
06:03 AM 29.0°F-1.7°C -48.1°F-44.5°C 1% 2.1 mph SW3.4 kmh SW 6.0 mph9.7 kmh 29.70 in1005.8 mb 0.00 in0.0 mm 0.00 in0.0 mm 0.00 in0.0 mm
06:02 AM 29.0°F-1.7°C -48.1°F-44.5°C 1% 1.6 mph SW2.6 kmh SW 6.0 mph9.7 kmh 29.70 in1005.8 mb 0.00 in0.0 mm 0.00 in0.0 mm 0.00 in0.0 mm
06:01 AM 29.0°F-1.7°C -48.1°F-44.5°C 1% 1.6 mph WSW2.6 kmh WSW 6.0 mph9.7 kmh 29.70 in1005.8 mb 0.00 in0.0 mm 0.00 in0.0 mm 0.00 in0.0 mm
06:00 AM 29.0°F-1.7°C -48.1°F-44.5°C 1% 1.9 mph WSW3.1 kmh WSW 6.0 mph9.7 kmh 29.70 in1005.8 mb 0.00 in0.0 mm 0.00 in0.0 mm 0.00 in0.0 mm
05:59 AM 29.0°F-1.7°C -48.1°F-44.5°C 1% 1.7 mph W2.7 kmh W 6.0 mph9.7 kmh 29.70 in1005.8 mb 0.00 in0.0 mm 0.00 in0.0 mm 0.00 in0.0 mm
05:58 AM 29.0°F-1.7°C -48.1°F-44.5°C 1% 1.3 mph WSW2.1 kmh WSW 6.0 mph9.7 kmh 29.70 in1005.8 mb 0.00 in0.0 mm 0.00 in0.0 mm 0.00 in0.0 mm
05:57 AM 29.0°F-1.7°C -48.1°F-44.5°C 1% 1.8 mph SW2.9 kmh SW 4.4 mph7.1 kmh 29.70 in1005.8 mb 0.00 in0.0 mm 0.00 in0.0 mm 0.00 in0.0 mm
05:56 AM 29.0°F-1.7°C -48.1°F-44.5°C 1% 1.5 mph SW2.4 kmh SW 4.7 mph7.6 kmh 29.70 in1005.8 mb 0.00 in0.0 mm 0.00 in0.0 mm 0.00 in0.0 mm
05:55 AM 29.0°F-1.7°C -48.1°F-44.5°C 1% 0.9 mph WSW1.4 kmh WSW 6.0 mph9.7 kmh 29.70 in1005.8 mb 0.00 in0.0 mm 0.00 in0.0 mm 0.00 in0.0 mm
05:54 AM 29.0°F-1.7°C -48.1°F-44.5°C 1% 1.4 mph WSW2.3 kmh WSW 6.0 mph9.7 kmh 29.70 in1005.8 mb 0.00 in0.0 mm 0.00 in0.0 mm 0.00 in0.0 mm
05:53 AM 29.0°F-1.7°C -48.1°F-44.5°C 1% 1.6 mph WSW2.6 kmh WSW 6.3 mph10.1 kmh 29.70 in1005.8 mb 0.00 in0.0 mm 0.00 in0.0 mm 0.00 in0.0 mm
05:52 AM 29.0°F-1.7°C -48.1°F-44.5°C 1% 1.6 mph WSW2.6 kmh WSW 6.3 mph10.1 kmh 29.70 in1005.8 mb 0.00 in0.0 mm 0.00 in0.0 mm 0.00 in0.0 mm
05:51 AM 29.0°F-1.7°C -48.1°F-44.5°C 1% 1.5 mph WSW2.4 kmh WSW 6.3 mph10.1 kmh 29.70 in1005.8 mb 0.00 in0.0 mm 0.00 in0.0 mm 0.00 in0.0 mm
05:50 AM 29.0°F-1.7°C -48.1°F-44.5°C 1% 2.1 mph WSW3.4 kmh WSW 6.3 mph10.1 kmh 29.70 in1005.8 mb 0.00 in0.0 mm 0.00 in0.0 mm 0.00 in0.0 mm
05:49 AM 29.0°F-1.7°C -48.1°F-44.5°C 1% 2.9 mph WSW4.7 kmh WSW 6.3 mph10.1 kmh 29.70 in1005.8 mb 0.00 in0.0 mm 0.00 in0.0 mm 0.00 in0.0 mm
05:48 AM 29.0°F-1.7°C -48.1°F-44.5°C 1% 3.2 mph WSW5.1 kmh WSW 6.3 mph10.1 kmh 29.69 in1005.4 mb 0.00 in0.0 mm 0.00 in0.0 mm 0.00 in0.0 mm
05:47 AM 29.0°F-1.7°C -48.1°F-44.5°C 1% 2.5 mph WSW4.0 kmh WSW 6.3 mph10.1 kmh 29.69 in1005.4 mb 0.00 in0.0 mm 0.00 in0.0 mm 0.00 in0.0 mm
05:46 AM 29.0°F-1.7°C -48.1°F-44.5°C 1% 3.0 mph SW4.8 kmh SW 6.3 mph10.1 kmh 29.69 in1005.4 mb 0.00 in0.0 mm 0.00 in0.0 mm 0.00 in0.0 mm
05:45 AM 29.0°F-1.7°C -48.1°F-44.5°C 1% 3.7 mph WSW6.0 kmh WSW 6.3 mph10.1 kmh 29.69 in1005.4 mb 0.00 in0.0 mm 0.00 in0.0 mm 0.00 in0.0 mm
05:44 AM 29.0°F-1.7°C -48.1°F-44.5°C 1% 3.2 mph WSW5.1 kmh WSW 6.3 mph10.1 kmh 29.69 in1005.4 mb 0.00 in0.0 mm 0.00 in0.0 mm 0.00 in0.0 mm
05:43 AM 29.0°F-1.7°C -48.1°F-44.5°C 1% 2.4 mph WSW3.9 kmh WSW 6.3 mph10.1 kmh 29.69 in1005.4 mb 0.00 in0.0 mm 0.00 in0.0 mm 0.00 in0.0 mm
05:42 AM 29.0°F-1.7°C -48.1°F-44.5°C 1% 1.0 mph SW1.6 kmh SW 4.7 mph7.6 kmh 29.69 in1005.4 mb 0.00 in0.0 mm 0.00 in0.0 mm 0.00 in0.0 mm
05:41 AM 29.0°F-1.7°C -48.1°F-44.5°C 1% 1.6 mph WSW2.6 kmh WSW 4.7 mph7.6 kmh 29.69 in1005.4 mb 0.00 in0.0 mm 0.00 in0.0 mm 0.00 in0.0 mm
05:40 AM 29.0°F-1.7°C -48.1°F-44.5°C 1% 2.4 mph WSW3.9 kmh WSW 4.7 mph7.6 kmh 29.69 in1005.4 mb 0.00 in0.0 mm 0.00 in0.0 mm 0.00 in0.0 mm
05:39 AM 29.0°F-1.7°C -48.1°F-44.5°C 1% 2.7 mph SW4.3 kmh SW 6.0 mph9.7 kmh 29.69 in1005.4 mb 0.00 in0.0 mm 0.00 in0.0 mm 0.00 in0.0 mm
05:38 AM 29.0°F-1.7°C -48.1°F-44.5°C 1% 2.0 mph SW3.2 kmh SW 6.0 mph9.7 kmh 29.69 in1005.4 mb 0.00 in0.0 mm 0.00 in0.0 mm 0.00 in0.0 mm
05:37 AM 29.0°F-1.7°C -48.1°F-44.5°C 1% 1.4 mph WNW2.3 kmh WNW 6.0 mph9.7 kmh 29.69 in1005.4 mb 0.00 in0.0 mm 0.00 in0.0 mm 0.00 in0.0 mm
05:36 AM 29.0°F-1.7°C -48.1°F-44.5°C 1% 1.6 mph NW2.6 kmh NW 6.0 mph9.7 kmh 29.69 in1005.4 mb 0.00 in0.0 mm 0.00 in0.0 mm 0.00 in0.0 mm
05:35 AM 29.0°F-1.7°C -48.1°F-44.5°C 1% 2.1 mph WSW3.4 kmh WSW 6.0 mph9.7 kmh 29.69 in1005.4 mb 0.00 in0.0 mm 0.00 in0.0 mm 0.00 in0.0 mm
05:34 AM 29.0°F-1.7°C -48.1°F-44.5°C 1% 2.7 mph WSW4.3 kmh WSW 6.0 mph9.7 kmh 29.69 in1005.4 mb 0.00 in0.0 mm 0.00 in0.0 mm 0.00 in0.0 mm
05:33 AM 29.0°F-1.7°C -48.1°F-44.5°C 1% 2.4 mph WSW3.9 kmh WSW 6.0 mph9.7 kmh 29.69 in1005.4 mb 0.00 in0.0 mm 0.00 in0.0 mm 0.00 in0.0 mm
05:32 AM 29.0°F-1.7°C -48.1°F-44.5°C 1% 2.0 mph SW3.2 kmh SW 6.0 mph9.7 kmh 29.69 in1005.4 mb 0.00 in0.0 mm 0.00 in0.0 mm 0.00 in0.0 mm
05:31 AM 29.0°F-1.7°C -48.1°F-44.5°C 1% 2.6 mph WSW4.2 kmh WSW 6.0 mph9.7 kmh 29.69 in1005.4 mb 0.00 in0.0 mm 0.00 in0.0 mm 0.00 in0.0 mm
05:30 AM 29.0°F-1.7°C -48.1°F-44.5°C 1% 2.8 mph W4.5 kmh W 6.0 mph9.7 kmh 29.69 in1005.4 mb 0.00 in0.0 mm 0.00 in0.0 mm 0.00 in0.0 mm
05:29 AM 29.0°F-1.7°C -48.1°F-44.5°C 1% 3.3 mph W5.3 kmh W 5.4 mph8.7 kmh 29.69 in1005.4 mb 0.00 in0.0 mm 0.00 in0.0 mm 0.00 in0.0 mm
05:28 AM 29.0°F-1.7°C -48.1°F-44.5°C 1% 3.5 mph WSW5.6 kmh WSW 5.4 mph8.7 kmh 29.69 in1005.4 mb 0.00 in0.0 mm 0.00 in0.0 mm 0.00 in0.0 mm
05:27 AM 29.0°F-1.7°C -48.1°F-44.5°C 1% 2.9 mph WSW4.7 kmh WSW 4.7 mph7.6 kmh 29.69 in1005.4 mb 0.00 in0.0 mm 0.00 in0.0 mm 0.00 in0.0 mm
05:26 AM 29.2°F-1.6°C -47.9°F-44.4°C 1% 2.4 mph SW3.9 kmh SW 4.7 mph7.6 kmh 29.69 in1005.4 mb 0.00 in0.0 mm 0.00 in0.0 mm 0.00 in0.0 mm
05:25 AM 29.2°F-1.6°C -47.9°F-44.4°C 1% 2.0 mph SW3.2 kmh SW 4.7 mph7.6 kmh 29.69 in1005.4 mb 0.00 in0.0 mm 0.00 in0.0 mm 0.00 in0.0 mm
05:24 AM 29.2°F-1.6°C -47.9°F-44.4°C 1% 1.6 mph WSW2.6 kmh WSW 4.7 mph7.6 kmh 29.69 in1005.4 mb 0.00 in0.0 mm 0.00 in0.0 mm 0.00 in0.0 mm
05:23 AM 29.0°F-1.7°C -48.1°F-44.5°C 1% 1.1 mph WSW1.8 kmh WSW 3.9 mph6.3 kmh 29.69 in1005.4 mb 0.00 in0.0 mm 0.00 in0.0 mm 0.00 in0.0 mm
05:22 AM 29.2°F-1.6°C -47.9°F-44.4°C 1% 1.8 mph WSW2.9 kmh WSW 3.9 mph6.3 kmh 29.69 in1005.4 mb 0.00 in0.0 mm 0.00 in0.0 mm 0.00 in0.0 mm
05:21 AM 29.2°F-1.6°C -47.9°F-44.4°C 1% 2.0 mph WSW3.2 kmh WSW 3.9 mph6.3 kmh 29.69 in1005.4 mb 0.00 in0.0 mm 0.00 in0.0 mm 0.00 in0.0 mm
05:20 AM 29.2°F-1.6°C -47.9°F-44.4°C 1% 1.1 mph WSW1.8 kmh WSW 3.9 mph6.3 kmh 29.69 in1005.4 mb 0.00 in0.0 mm 0.00 in0.0 mm 0.00 in0.0 mm
05:19 AM 29.2°F-1.6°C -47.9°F-44.4°C 1% 1.7 mph WSW2.7 kmh WSW 5.4 mph8.7 kmh 29.69 in1005.4 mb 0.00 in0.0 mm 0.00 in0.0 mm 0.00 in0.0 mm
05:18 AM 29.2°F-1.6°C -47.9°F-44.4°C 1% 2.3 mph WSW3.7 kmh WSW 5.4 mph8.7 kmh 29.69 in1005.4 mb 0.00 in0.0 mm 0.00 in0.0 mm 0.00 in0.0 mm
05:17 AM 29.2°F-1.6°C -47.9°F-44.4°C 1% 1.7 mph WSW2.7 kmh WSW 5.4 mph8.7 kmh 29.69 in1005.4 mb 0.00 in0.0 mm 0.00 in0.0 mm 0.00 in0.0 mm
05:16 AM 29.2°F-1.6°C -47.9°F-44.4°C 1% 1.0 mph W1.6 kmh W 5.4 mph8.7 kmh 29.69 in1005.4 mb 0.00 in0.0 mm 0.00 in0.0 mm 0.00 in0.0 mm
05:15 AM 29.0°F-1.7°C -48.1°F-44.5°C 1% 1.2 mph W1.9 kmh W 5.4 mph8.7 kmh 29.69 in1005.4 mb 0.00 in0.0 mm 0.00 in0.0 mm 0.00 in0.0 mm
05:14 AM 29.2°F-1.6°C -47.9°F-44.4°C 1% 1.5 mph WSW2.4 kmh WSW 5.4 mph8.7 kmh 29.69 in1005.4 mb 0.00 in0.0 mm 0.00 in0.0 mm 0.00 in0.0 mm
05:13 AM 29.2°F-1.6°C -47.9°F-44.4°C 1% 1.5 mph W2.4 kmh W 7.0 mph11.3 kmh 29.69 in1005.4 mb 0.00 in0.0 mm 0.00 in0.0 mm 0.00 in0.0 mm
05:12 AM 29.2°F-1.6°C -47.9°F-44.4°C 1% 1.3 mph W2.1 kmh W 7.0 mph11.3 kmh 29.69 in1005.4 mb 0.00 in0.0 mm 0.00 in0.0 mm 0.00 in0.0 mm
05:11 AM 29.2°F-1.6°C -47.9°F-44.4°C 1% 1.9 mph WSW3.1 kmh WSW 7.0 mph11.3 kmh 29.69 in1005.4 mb 0.00 in0.0 mm 0.00 in0.0 mm 0.00 in0.0 mm
05:10 AM 29.2°F-1.6°C -47.9°F-44.4°C 1% 2.1 mph WSW3.4 kmh WSW 7.0 mph11.3 kmh 29.69 in1005.4 mb 0.00 in0.0 mm 0.00 in0.0 mm 0.00 in0.0 mm
05:09 AM 29.2°F-1.6°C -47.9°F-44.4°C 1% 2.0 mph WSW3.2 kmh WSW 7.0 mph11.3 kmh 29.69 in1005.4 mb 0.00 in0.0 mm 0.00 in0.0 mm 0.00 in0.0 mm
05:08 AM 29.2°F-1.6°C -47.9°F-44.4°C 1% 2.0 mph WSW3.2 kmh WSW 7.0 mph11.3 kmh 29.69 in1005.4 mb 0.00 in0.0 mm 0.00 in0.0 mm 0.00 in0.0 mm
05:07 AM 29.2°F-1.6°C -47.9°F-44.4°C 1% 1.5 mph WSW2.4 kmh WSW 7.0 mph11.3 kmh 29.69 in1005.4 mb 0.00 in0.0 mm 0.00 in0.0 mm 0.00 in0.0 mm
05:06 AM 29.2°F-1.6°C -47.9°F-44.4°C 1% 1.9 mph WSW3.1 kmh WSW 7.0 mph11.3 kmh 29.69 in1005.4 mb 0.00 in0.0 mm 0.00 in0.0 mm 0.00 in0.0 mm
05:05 AM 29.2°F-1.6°C -47.9°F-44.4°C 1% 3.2 mph WSW5.1 kmh WSW 7.0 mph11.3 kmh 29.69 in1005.4 mb 0.00 in0.0 mm 0.00 in0.0 mm 0.00 in0.0 mm
05:04 AM 29.2°F-1.6°C -47.9°F-44.4°C 1% 3.6 mph WSW5.8 kmh WSW 7.0 mph11.3 kmh 29.69 in1005.4 mb 0.00 in0.0 mm 0.00 in0.0 mm 0.00 in0.0 mm
05:03 AM 29.2°F-1.6°C -47.9°F-44.4°C 1% 2.4 mph WSW3.9 kmh WSW 6.0 mph9.7 kmh 29.69 in1005.4 mb 0.00 in0.0 mm 0.00 in0.0 mm 0.00 in0.0 mm
05:02 AM 29.2°F-1.6°C -47.9°F-44.4°C 1% 1.9 mph WSW3.1 kmh WSW 6.0 mph9.7 kmh 29.69 in1005.4 mb 0.00 in0.0 mm 0.00 in0.0 mm 0.00 in0.0 mm
05:01 AM 29.2°F-1.6°C -47.9°F-44.4°C 1% 1.3 mph WSW2.1 kmh WSW 6.0 mph9.7 kmh 29.69 in1005.4 mb 0.00 in0.0 mm 0.00 in0.0 mm 0.00 in0.0 mm
05:00 AM 29.2°F-1.6°C -47.9°F-44.4°C 1% 2.1 mph SW3.4 kmh SW 6.0 mph9.7 kmh 29.69 in1005.4 mb 0.00 in0.0 mm 0.00 in0.0 mm 0.00 in0.0 mm
04:59 AM 29.2°F-1.6°C -47.9°F-44.4°C 1% 2.8 mph SW4.5 kmh SW 7.5 mph12.1 kmh 29.69 in1005.4 mb 0.00 in0.0 mm 0.00 in0.0 mm 0.00 in0.0 mm
04:58 AM 29.0°F-1.7°C -48.1°F-44.5°C 1% 2.9 mph W4.7 kmh W 7.5 mph12.1 kmh 29.69 in1005.4 mb 0.00 in0.0 mm 0.00 in0.0 mm 0.00 in0.0 mm
04:57 AM 29.0°F-1.7°C -48.1°F-44.5°C 1% 3.1 mph W5.0 kmh W 7.5 mph12.1 kmh 29.69 in1005.4 mb 0.00 in0.0 mm 0.00 in0.0 mm 0.00 in0.0 mm
04:56 AM 29.0°F-1.7°C -48.1°F-44.5°C 1% 2.8 mph W4.5 kmh W 7.5 mph12.1 kmh 29.69 in1005.4 mb 0.00 in0.0 mm 0.00 in0.0 mm 0.00 in0.0 mm
04:55 AM 29.0°F-1.7°C -48.1°F-44.5°C 1% 3.1 mph W5.0 kmh W 7.5 mph12.1 kmh 29.69 in1005.4 mb 0.00 in0.0 mm 0.00 in0.0 mm 0.00 in0.0 mm
04:54 AM 29.0°F-1.7°C -48.1°F-44.5°C 1% 3.4 mph W5.5 kmh W 7.5 mph12.1 kmh 29.69 in1005.4 mb 0.00 in0.0 mm 0.00 in0.0 mm 0.00 in0.0 mm
04:53 AM 29.0°F-1.7°C -48.1°F-44.5°C 1% 2.4 mph W3.9 kmh W 7.5 mph12.1 kmh 29.69 in1005.4 mb 0.00 in0.0 mm 0.00 in0.0 mm 0.00 in0.0 mm
04:52 AM 29.0°F-1.7°C -48.1°F-44.5°C 1% 1.7 mph SW2.7 kmh SW 7.5 mph12.1 kmh 29.69 in1005.4 mb 0.00 in0.0 mm 0.00 in0.0 mm 0.00 in0.0 mm
04:51 AM 29.0°F-1.7°C -48.1°F-44.5°C 1% 2.7 mph SW4.3 kmh SW 7.5 mph12.1 kmh 29.68 in1005.1 mb 0.00 in0.0 mm 0.00 in0.0 mm 0.00 in0.0 mm
04:50 AM 29.0°F-1.7°C -48.1°F-44.5°C 1% 3.6 mph WSW5.8 kmh WSW 7.5 mph12.1 kmh 29.68 in1005.1 mb 0.00 in0.0 mm 0.00 in0.0 mm 0.00 in0.0 mm
04:49 AM 29.0°F-1.7°C -48.1°F-44.5°C 1% 3.9 mph WSW6.3 kmh WSW 5.4 mph8.7 kmh 29.68 in1005.1 mb 0.00 in0.0 mm 0.00 in0.0 mm 0.00 in0.0 mm
04:48 AM 29.0°F-1.7°C -48.1°F-44.5°C 1% 3.9 mph W6.3 kmh W 5.4 mph8.7 kmh 29.68 in1005.1 mb 0.00 in0.0 mm 0.00 in0.0 mm 0.00 in0.0 mm
04:47 AM 29.0°F-1.7°C -48.1°F-44.5°C 1% 3.5 mph W5.6 kmh W 5.4 mph8.7 kmh 29.68 in1005.1 mb 0.00 in0.0 mm 0.00 in0.0 mm 0.00 in0.0 mm
04:46 AM 29.0°F-1.7°C -48.1°F-44.5°C 1% 3.1 mph W5.0 kmh W 6.3 mph10.1 kmh 29.68 in1005.1 mb 0.00 in0.0 mm 0.00 in0.0 mm 0.00 in0.0 mm
04:45 AM 29.0°F-1.7°C -48.1°F-44.5°C 1% 1.7 mph W2.7 kmh W 6.3 mph10.1 kmh 29.68 in1005.1 mb 0.00 in0.0 mm 0.00 in0.0 mm 0.00 in0.0 mm
04:44 AM 29.0°F-1.7°C -48.1°F-44.5°C 1% 1.5 mph SW2.4 kmh SW 6.3 mph10.1 kmh 29.68 in1005.1 mb 0.00 in0.0 mm 0.00 in0.0 mm 0.00 in0.0 mm
04:43 AM 29.0°F-1.7°C -48.1°F-44.5°C 1% 2.6 mph WSW4.2 kmh WSW 6.3 mph10.1 kmh 29.68 in1005.1 mb 0.00 in0.0 mm 0.00 in0.0 mm 0.00 in0.0 mm
04:42 AM 29.0°F-1.7°C -48.1°F-44.5°C 1% 2.2 mph WSW3.5 kmh WSW 6.7 mph10.8 kmh 29.68 in1005.1 mb 0.00 in0.0 mm 0.00 in0.0 mm 0.00 in0.0 mm
04:41 AM 29.0°F-1.7°C -48.1°F-44.5°C 1% 2.2 mph SW3.5 kmh SW 7.5 mph12.1 kmh 29.68 in1005.1 mb 0.00 in0.0 mm 0.00 in0.0 mm 0.00 in0.0 mm
04:40 AM 29.0°F-1.7°C -48.1°F-44.5°C 1% 3.0 mph SW4.8 kmh SW 7.5 mph12.1 kmh 29.68 in1005.1 mb 0.00 in0.0 mm 0.00 in0.0 mm 0.00 in0.0 mm
04:39 AM 29.0°F-1.7°C -48.1°F-44.5°C 1% 2.9 mph SW4.7 kmh SW 7.5 mph12.1 kmh 29.68 in1005.1 mb 0.00 in0.0 mm 0.00 in0.0 mm 0.00 in0.0 mm
04:38 AM 29.0°F-1.7°C -48.1°F-44.5°C 1% 2.7 mph WSW4.3 kmh WSW 7.5 mph12.1 kmh 29.68 in1005.1 mb 0.00 in0.0 mm 0.00 in0.0 mm 0.00 in0.0 mm
04:37 AM 29.0°F-1.7°C -48.1°F-44.5°C 1% 2.4 mph WSW3.9 kmh WSW 7.5 mph12.1 kmh 29.68 in1005.1 mb 0.00 in0.0 mm 0.00 in0.0 mm 0.00 in0.0 mm
04:36 AM 29.0°F-1.7°C -48.1°F-44.5°C 1% 2.7 mph WSW4.3 kmh WSW 7.5 mph12.1 kmh 29.68 in1005.1 mb 0.00 in0.0 mm 0.00 in0.0 mm 0.00 in0.0 mm
04:35 AM 29.0°F-1.7°C -48.1°F-44.5°C 1% 2.3 mph WSW3.7 kmh WSW 7.5 mph12.1 kmh 29.68 in1005.1 mb 0.00 in0.0 mm 0.00 in0.0 mm 0.00 in0.0 mm
04:34 AM 29.0°F-1.7°C -48.1°F-44.5°C 1% 2.8 mph SW4.5 kmh SW 7.5 mph12.1 kmh 29.68 in1005.1 mb 0.00 in0.0 mm 0.00 in0.0 mm 0.00 in0.0 mm
04:33 AM 29.0°F-1.7°C -48.1°F-44.5°C 1% 3.9 mph SW6.3 kmh SW 7.5 mph12.1 kmh 29.68 in1005.1 mb 0.00 in0.0 mm 0.00 in0.0 mm 0.00 in0.0 mm
04:32 AM 29.0°F-1.7°C -48.1°F-44.5°C 1% 4.1 mph WSW6.6 kmh WSW 7.5 mph12.1 kmh 29.68 in1005.1 mb 0.00 in0.0 mm 0.00 in0.0 mm 0.00 in0.0 mm
04:31 AM 29.0°F-1.7°C -48.1°F-44.5°C 1% 3.6 mph WSW5.8 kmh WSW 7.5 mph12.1 kmh 29.68 in1005.1 mb 0.00 in0.0 mm 0.00 in0.0 mm 0.00 in0.0 mm
04:30 AM 29.0°F-1.7°C -48.1°F-44.5°C 1% 1.7 mph WSW2.7 kmh WSW 5.1 mph8.2 kmh 29.68 in1005.1 mb 0.00 in0.0 mm 0.00 in0.0 mm 0.00 in0.0 mm
04:29 AM 29.0°F-1.7°C -48.1°F-44.5°C 1% 1.4 mph W2.3 kmh W 5.1 mph8.2 kmh 29.68 in1005.1 mb 0.00 in0.0 mm 0.00 in0.0 mm 0.00 in0.0 mm
04:28 AM 29.0°F-1.7°C -48.1°F-44.5°C 1% 1.8 mph WSW2.9 kmh WSW 5.1 mph8.2 kmh 29.68 in1005.1 mb 0.00 in0.0 mm 0.00 in0.0 mm 0.00 in0.0 mm
04:27 AM 29.0°F-1.7°C -48.1°F-44.5°C 1% 2.4 mph W3.9 kmh W 5.1 mph8.2 kmh 29.68 in1005.1 mb 0.00 in0.0 mm 0.00 in0.0 mm 0.00 in0.0 mm
04:26 AM 29.0°F-1.7°C -48.1°F-44.5°C 1% 2.4 mph WSW3.9 kmh WSW 5.1 mph8.2 kmh 29.68 in1005.1 mb 0.00 in0.0 mm 0.00 in0.0 mm 0.00 in0.0 mm
04:25 AM 29.0°F-1.7°C -48.1°F-44.5°C 1% 1.9 mph WSW3.1 kmh WSW 5.1 mph8.2 kmh 29.68 in1005.1 mb 0.00 in0.0 mm 0.00 in0.0 mm 0.00 in0.0 mm
04:24 AM 29.0°F-1.7°C -48.1°F-44.5°C 1% 1.8 mph WSW2.9 kmh WSW 5.1 mph8.2 kmh 29.68 in1005.1 mb 0.00 in0.0 mm 0.00 in0.0 mm 0.00 in0.0 mm
04:23 AM 29.0°F-1.7°C -48.1°F-44.5°C 1% 1.5 mph WSW2.4 kmh WSW 5.1 mph8.2 kmh 29.68 in1005.1 mb 0.00 in0.0 mm 0.00 in0.0 mm 0.00 in0.0 mm
04:22 AM 29.0°F-1.7°C -48.1°F-44.5°C 1% 1.7 mph WSW2.7 kmh WSW 5.1 mph8.2 kmh 29.68 in1005.1 mb 0.00 in0.0 mm 0.00 in0.0 mm 0.00 in0.0 mm
04:21 AM 29.0°F-1.7°C -48.1°F-44.5°C 1% 2.7 mph WSW4.3 kmh WSW 5.1 mph8.2 kmh 29.68 in1005.1 mb 0.00 in0.0 mm 0.00 in0.0 mm 0.00 in0.0 mm
04:20 AM 29.0°F-1.7°C -48.1°F-44.5°C 1% 2.9 mph WSW4.7 kmh WSW 5.1 mph8.2 kmh 29.68 in1005.1 mb 0.00 in0.0 mm 0.00 in0.0 mm 0.00 in0.0 mm
04:19 AM 29.0°F-1.7°C -48.1°F-44.5°C 1% 2.5 mph WSW4.0 kmh WSW 5.1 mph8.2 kmh 29.68 in1005.1 mb 0.00 in0.0 mm 0.00 in0.0 mm 0.00 in0.0 mm
04:18 AM 29.0°F-1.7°C -48.1°F-44.5°C 1% 2.9 mph WSW4.7 kmh WSW 5.1 mph8.2 kmh 29.68 in1005.1 mb 0.00 in0.0 mm 0.00 in0.0 mm 0.00 in0.0 mm
04:17 AM 29.0°F-1.7°C -48.1°F-44.5°C 1% 3.1 mph W5.0 kmh W 5.1 mph8.2 kmh 29.68 in1005.1 mb 0.00 in0.0 mm 0.00 in0.0 mm 0.00 in0.0 mm
04:16 AM 29.0°F-1.7°C -48.1°F-44.5°C 1% 2.9 mph W4.7 kmh W 5.1 mph8.2 kmh 29.68 in1005.1 mb 0.00 in0.0 mm 0.00 in0.0 mm 0.00 in0.0 mm
04:15 AM 29.0°F-1.7°C -48.1°F-44.5°C 1% 2.9 mph WSW4.7 kmh WSW 5.1 mph8.2 kmh 29.68 in1005.1 mb 0.00 in0.0 mm 0.00 in0.0 mm 0.00 in0.0 mm
04:14 AM 29.0°F-1.7°C -48.1°F-44.5°C 1% 2.3 mph WSW3.7 kmh WSW 4.4 mph7.1 kmh 29.68 in1005.1 mb 0.00 in0.0 mm 0.00 in0.0 mm 0.00 in0.0 mm
04:13 AM 29.0°F-1.7°C -48.1°F-44.5°C 1% 1.9 mph WSW3.1 kmh WSW 4.4 mph7.1 kmh 29.68 in1005.1 mb 0.00 in0.0 mm 0.00 in0.0 mm 0.00 in0.0 mm
04:12 AM 29.0°F-1.7°C -48.1°F-44.5°C 1% 2.1 mph WSW3.4 kmh WSW 4.7 mph7.6 kmh 29.68 in1005.1 mb 0.00 in0.0 mm 0.00 in0.0 mm 0.00 in0.0 mm
04:11 AM 29.0°F-1.7°C -48.1°F-44.5°C 1% 1.8 mph SW2.9 kmh SW 4.7 mph7.6 kmh 29.68 in1005.1 mb 0.00 in0.0 mm 0.00 in0.0 mm 0.00 in0.0 mm
04:10 AM 29.0°F-1.7°C -48.1°F-44.5°C 1% 1.7 mph SW2.7 kmh SW 4.7 mph7.6 kmh 29.68 in1005.1 mb 0.00 in0.0 mm 0.00 in0.0 mm 0.00 in0.0 mm
04:09 AM 29.0°F-1.7°C -48.1°F-44.5°C 1% 1.9 mph WSW3.1 kmh WSW 4.7 mph7.6 kmh 29.68 in1005.1 mb 0.00 in0.0 mm 0.00 in0.0 mm 0.00 in0.0 mm
04:08 AM 29.0°F-1.7°C -48.1°F-44.5°C 1% 1.8 mph WSW2.9 kmh WSW 4.7 mph7.6 kmh 29.68 in1005.1 mb 0.00 in0.0 mm 0.00 in0.0 mm 0.00 in0.0 mm
04:07 AM 29.0°F-1.7°C -48.1°F-44.5°C 1% 1.6 mph WSW2.6 kmh WSW 4.7 mph7.6 kmh 29.67 in1004.7 mb 0.00 in0.0 mm 0.00 in0.0 mm 0.00 in0.0 mm
04:06 AM 29.0°F-1.7°C -48.1°F-44.5°C 1% 0.9 mph SW1.4 kmh SW 5.1 mph8.2 kmh 29.68 in1005.1 mb 0.00 in0.0 mm 0.00 in0.0 mm 0.00 in0.0 mm
04:05 AM 29.0°F-1.7°C -48.1°F-44.5°C 1% 1.3 mph WSW2.1 kmh WSW 5.1 mph8.2 kmh 29.67 in1004.7 mb 0.00 in0.0 mm 0.00 in0.0 mm 0.00 in0.0 mm
04:04 AM 29.0°F-1.7°C -48.1°F-44.5°C 1% 2.4 mph W3.9 kmh W 5.1 mph8.2 kmh 29.67 in1004.7 mb 0.00 in0.0 mm 0.00 in0.0 mm 0.00 in0.0 mm
04:03 AM 29.0°F-1.7°C -48.1°F-44.5°C 1% 2.3 mph W3.7 kmh W 5.1 mph8.2 kmh 29.67 in1004.7 mb 0.00 in0.0 mm 0.00 in0.0 mm 0.00 in0.0 mm
04:02 AM 29.0°F-1.7°C -48.1°F-44.5°C 1% 1.9 mph WSW3.1 kmh WSW 6.0 mph9.7 kmh 29.67 in1004.7 mb 0.00 in0.0 mm 0.00 in0.0 mm 0.00 in0.0 mm
04:01 AM 29.0°F-1.7°C -48.1°F-44.5°C 1% 2.4 mph WSW3.9 kmh WSW 6.7 mph10.8 kmh 29.67 in1004.7 mb 0.00 in0.0 mm 0.00 in0.0 mm 0.00 in0.0 mm
04:00 AM 29.0°F-1.7°C -48.1°F-44.5°C 1% 2.6 mph SW4.2 kmh SW 6.7 mph10.8 kmh 29.67 in1004.7 mb 0.00 in0.0 mm 0.00 in0.0 mm 0.00 in0.0 mm
03:59 AM 29.0°F-1.7°C -48.1°F-44.5°C 1% 2.2 mph SW3.5 kmh SW 6.7 mph10.8 kmh 29.67 in1004.7 mb 0.00 in0.0 mm 0.00 in0.0 mm 0.00 in0.0 mm
03:58 AM 29.0°F-1.7°C -48.1°F-44.5°C 1% 1.8 mph WSW2.9 kmh WSW 6.7 mph10.8 kmh 29.67 in1004.7 mb 0.00 in0.0 mm 0.00 in0.0 mm 0.00 in0.0 mm
03:57 AM 29.0°F-1.7°C -48.1°F-44.5°C 1% 2.7 mph WSW4.3 kmh WSW 6.7 mph10.8 kmh 29.67 in1004.7 mb 0.00 in0.0 mm 0.00 in0.0 mm 0.00 in0.0 mm
03:56 AM 29.0°F-1.7°C -48.1°F-44.5°C 1% 3.3 mph SW5.3 kmh SW 6.7 mph10.8 kmh 29.67 in1004.7 mb 0.00 in0.0 mm 0.00 in0.0 mm 0.00 in0.0 mm
03:55 AM 29.0°F-1.7°C -48.1°F-44.5°C 1% 2.7 mph WSW4.3 kmh WSW 6.7 mph10.8 kmh 29.67 in1004.7 mb 0.00 in0.0 mm 0.00 in0.0 mm 0.00 in0.0 mm
03:54 AM 29.0°F-1.7°C -48.1°F-44.5°C 1% 2.6 mph WSW4.2 kmh WSW 6.7 mph10.8 kmh 29.67 in1004.7 mb 0.00 in0.0 mm 0.00 in0.0 mm 0.00 in0.0 mm
03:53 AM 29.0°F-1.7°C -48.1°F-44.5°C 1% 3.9 mph WSW6.3 kmh WSW 6.7 mph10.8 kmh 29.67 in1004.7 mb 0.00 in0.0 mm 0.00 in0.0 mm 0.00 in0.0 mm
03:52 AM 29.0°F-1.7°C -48.1°F-44.5°C 1% 3.3 mph WSW5.3 kmh WSW 6.7 mph10.8 kmh 29.67 in1004.7 mb 0.00 in0.0 mm 0.00 in0.0 mm 0.00 in0.0 mm
03:51 AM 29.0°F-1.7°C -48.1°F-44.5°C 1% 1.1 mph WSW1.8 kmh WSW 6.0 mph9.7 kmh 29.67 in1004.7 mb 0.00 in0.0 mm 0.00 in0.0 mm 0.00 in0.0 mm
03:50 AM 29.0°F-1.7°C -48.1°F-44.5°C 1% 1.7 mph WSW2.7 kmh WSW 6.0 mph9.7 kmh 29.67 in1004.7 mb 0.00 in0.0 mm 0.00 in0.0 mm 0.00 in0.0 mm
03:49 AM 29.0°F-1.7°C -48.1°F-44.5°C 1% 2.5 mph WSW4.0 kmh WSW 6.0 mph9.7 kmh 29.67 in1004.7 mb 0.00 in0.0 mm 0.00 in0.0 mm 0.00 in0.0 mm
03:48 AM 29.0°F-1.7°C -48.1°F-44.5°C 1% 2.2 mph WSW3.5 kmh WSW 6.0 mph9.7 kmh 29.67 in1004.7 mb 0.00 in0.0 mm 0.00 in0.0 mm 0.00 in0.0 mm
03:47 AM 28.8°F-1.8°C -48.2°F-44.6°C 1% 2.5 mph WSW4.0 kmh WSW 4.7 mph7.6 kmh 29.67 in1004.7 mb 0.00 in0.0 mm 0.00 in0.0 mm 0.00 in0.0 mm
03:46 AM 28.8°F-1.8°C -48.2°F-44.6°C 1% 2.1 mph WSW3.4 kmh WSW 6.7 mph10.8 kmh 29.67 in1004.7 mb 0.00 in0.0 mm 0.00 in0.0 mm 0.00 in0.0 mm
03:45 AM 28.8°F-1.8°C -48.2°F-44.6°C 1% 2.0 mph SW3.2 kmh SW 6.7 mph10.8 kmh 29.67 in1004.7 mb 0.00 in0.0 mm 0.00 in0.0 mm 0.00 in0.0 mm
03:44 AM 28.8°F-1.8°C -48.2°F-44.6°C 1% 3.0 mph WSW4.8 kmh WSW 6.7 mph10.8 kmh 29.67 in1004.7 mb 0.00 in0.0 mm 0.00 in0.0 mm 0.00 in0.0 mm
03:43 AM 28.8°F-1.8°C -48.2°F-44.6°C 1% 3.0 mph WSW4.8 kmh WSW 6.7 mph10.8 kmh 29.67 in1004.7 mb 0.00 in0.0 mm 0.00 in0.0 mm 0.00 in0.0 mm
03:42 AM 28.8°F-1.8°C -48.2°F-44.6°C 1% 1.9 mph WSW3.1 kmh WSW 6.7 mph10.8 kmh 29.67 in1004.7 mb 0.00 in0.0 mm 0.00 in0.0 mm 0.00 in0.0 mm
03:41 AM 28.8°F-1.8°C -48.2°F-44.6°C 1% 1.8 mph SW2.9 kmh SW 6.7 mph10.8 kmh 29.67 in1004.7 mb 0.00 in0.0 mm 0.00 in0.0 mm 0.00 in0.0 mm
03:40 AM 28.8°F-1.8°C -48.2°F-44.6°C 1% 2.1 mph SW3.4 kmh SW 6.7 mph10.8 kmh 29.67 in1004.7 mb 0.00 in0.0 mm 0.00 in0.0 mm 0.00 in0.0 mm
03:39 AM 28.8°F-1.8°C -48.2°F-44.6°C 1% 2.4 mph WSW3.9 kmh WSW 6.7 mph10.8 kmh 29.67 in1004.7 mb 0.00 in0.0 mm 0.00 in0.0 mm 0.00 in0.0 mm
03:38 AM 28.8°F-1.8°C -48.2°F-44.6°C 1% 2.9 mph WSW4.7 kmh WSW 6.7 mph10.8 kmh 29.67 in1004.7 mb 0.00 in0.0 mm 0.00 in0.0 mm 0.00 in0.0 mm
03:37 AM 28.8°F-1.8°C -48.2°F-44.6°C 1% 2.6 mph WSW4.2 kmh WSW 6.7 mph10.8 kmh 29.66 in1004.4 mb 0.00 in0.0 mm 0.00 in0.0 mm 0.00 in0.0 mm
03:36 AM 28.8°F-1.8°C -48.2°F-44.6°C 1% 2.2 mph W3.5 kmh W 6.0 mph9.7 kmh 29.66 in1004.4 mb 0.00 in0.0 mm 0.00 in0.0 mm 0.00 in0.0 mm
03:35 AM 28.8°F-1.8°C -48.2°F-44.6°C 1% 1.5 mph W2.4 kmh W 6.0 mph9.7 kmh 29.66 in1004.4 mb 0.00 in0.0 mm 0.00 in0.0 mm 0.00 in0.0 mm
03:34 AM 28.8°F-1.8°C -48.2°F-44.6°C 1% 1.1 mph WSW1.8 kmh WSW 6.0 mph9.7 kmh 29.66 in1004.4 mb 0.00 in0.0 mm 0.00 in0.0 mm 0.00 in0.0 mm
03:33 AM 28.8°F-1.8°C -48.2°F-44.6°C 1% 1.9 mph SW3.1 kmh SW 6.0 mph9.7 kmh 29.66 in1004.4 mb 0.00 in0.0 mm 0.00 in0.0 mm 0.00 in0.0 mm
03:32 AM 28.8°F-1.8°C -48.2°F-44.6°C 1% 2.7 mph SW4.3 kmh SW 6.0 mph9.7 kmh 29.66 in1004.4 mb 0.00 in0.0 mm 0.00 in0.0 mm 0.00 in0.0 mm
03:31 AM 28.8°F-1.8°C -48.2°F-44.6°C 1% 2.7 mph WSW4.3 kmh WSW 6.0 mph9.7 kmh 29.66 in1004.4 mb 0.00 in0.0 mm 0.00 in0.0 mm 0.00 in0.0 mm
03:30 AM 28.8°F-1.8°C -48.2°F-44.6°C 1% 2.5 mph WSW4.0 kmh WSW 6.0 mph9.7 kmh 29.66 in1004.4 mb 0.00 in0.0 mm 0.00 in0.0 mm 0.00 in0.0 mm
03:29 AM 28.8°F-1.8°C -48.2°F-44.6°C 1% 2.9 mph WSW4.7 kmh WSW 6.0 mph9.7 kmh 29.66 in1004.4 mb 0.00 in0.0 mm 0.00 in0.0 mm 0.00 in0.0 mm
03:28 AM 28.8°F-1.8°C -48.2°F-44.6°C 1% 3.2 mph WSW5.1 kmh WSW 6.0 mph9.7 kmh 29.66 in1004.4 mb 0.00 in0.0 mm 0.00 in0.0 mm 0.00 in0.0 mm
03:27 AM 28.8°F-1.8°C -48.2°F-44.6°C 1% 2.2 mph WSW3.5 kmh WSW 6.0 mph9.7 kmh 29.66 in1004.4 mb 0.00 in0.0 mm 0.00 in0.0 mm 0.00 in0.0 mm
03:26 AM 28.8°F-1.8°C -48.2°F-44.6°C 1% 1.6 mph WSW2.6 kmh WSW 6.0 mph9.7 kmh 29.66 in1004.4 mb 0.00 in0.0 mm 0.00 in0.0 mm 0.00 in0.0 mm
03:25 AM 28.8°F-1.8°C -48.2°F-44.6°C 1% 1.8 mph WSW2.9 kmh WSW 6.0 mph9.7 kmh 29.66 in1004.4 mb 0.00 in0.0 mm 0.00 in0.0 mm 0.00 in0.0 mm
03:24 AM 28.8°F-1.8°C -48.2°F-44.6°C 1% 2.5 mph WSW4.0 kmh WSW 6.0 mph9.7 kmh 29.66 in1004.4 mb 0.00 in0.0 mm 0.00 in0.0 mm 0.00 in0.0 mm
03:23 AM 28.8°F-1.8°C -48.2°F-44.6°C 1% 2.0 mph WSW3.2 kmh WSW 6.0 mph9.7 kmh 29.66 in1004.4 mb 0.00 in0.0 mm 0.00 in0.0 mm 0.00 in0.0 mm
03:22 AM 28.8°F-1.8°C -48.2°F-44.6°C 1% 1.8 mph SW2.9 kmh SW 8.2 mph13.2 kmh 29.66 in1004.4 mb 0.00 in0.0 mm 0.00 in0.0 mm 0.00 in0.0 mm
03:21 AM 28.8°F-1.8°C -48.2°F-44.6°C 1% 2.7 mph SW4.3 kmh SW 8.2 mph13.2 kmh 29.66 in1004.4 mb 0.00 in0.0 mm 0.00 in0.0 mm 0.00 in0.0 mm
03:20 AM 28.8°F-1.8°C -48.2°F-44.6°C 1% 3.2 mph SW5.1 kmh SW 8.2 mph13.2 kmh 29.66 in1004.4 mb 0.00 in0.0 mm 0.00 in0.0 mm 0.00 in0.0 mm
03:19 AM 28.8°F-1.8°C -48.2°F-44.6°C 1% 2.4 mph SW3.9 kmh SW 8.2 mph13.2 kmh 29.66 in1004.4 mb 0.00 in0.0 mm 0.00 in0.0 mm 0.00 in0.0 mm
03:18 AM 28.6°F-1.9°C -48.3°F-44.6°C 1% 1.5 mph WSW2.4 kmh WSW 8.2 mph13.2 kmh 29.66 in1004.4 mb 0.00 in0.0 mm 0.00 in0.0 mm 0.00 in0.0 mm
03:17 AM 28.6°F-1.9°C -48.3°F-44.6°C 1% 1.8 mph WSW2.9 kmh WSW 8.2 mph13.2 kmh 29.66 in1004.4 mb 0.00 in0.0 mm 0.00 in0.0 mm 0.00 in0.0 mm
03:16 AM 28.6°F-1.9°C -48.3°F-44.6°C 1% 2.2 mph WSW3.5 kmh WSW 8.2 mph13.2 kmh 29.66 in1004.4 mb 0.00 in0.0 mm 0.00 in0.0 mm 0.00 in0.0 mm
03:15 AM 28.6°F-1.9°C -48.3°F-44.6°C 1% 3.3 mph W5.3 kmh W 8.2 mph13.2 kmh 29.66 in1004.4 mb 0.00 in0.0 mm 0.00 in0.0 mm 0.00 in0.0 mm
03:14 AM 28.6°F-1.9°C -48.3°F-44.6°C 1% 4.1 mph W6.6 kmh W 8.2 mph13.2 kmh 29.66 in1004.4 mb 0.00 in0.0 mm 0.00 in0.0 mm 0.00 in0.0 mm
03:13 AM 28.6°F-1.9°C -48.3°F-44.6°C 1% 3.2 mph WSW5.1 kmh WSW 8.2 mph13.2 kmh 29.66 in1004.4 mb 0.00 in0.0 mm 0.00 in0.0 mm 0.00 in0.0 mm
03:12 AM 28.6°F-1.9°C -48.3°F-44.6°C 1% 1.9 mph W3.1 kmh W 6.0 mph9.7 kmh 29.66 in1004.4 mb 0.00 in0.0 mm 0.00 in0.0 mm 0.00 in0.0 mm
03:11 AM 28.6°F-1.9°C -48.3°F-44.6°C 1% 1.2 mph W1.9 kmh W 5.4 mph8.7 kmh 29.66 in1004.4 mb 0.00 in0.0 mm 0.00 in0.0 mm 0.00 in0.0 mm
03:10 AM 28.6°F-1.9°C -48.3°F-44.6°C 1% 1.1 mph SW1.8 kmh SW 5.4 mph8.7 kmh 29.66 in1004.4 mb 0.00 in0.0 mm 0.00 in0.0 mm 0.00 in0.0 mm
03:09 AM 28.6°F-1.9°C -48.3°F-44.6°C 1% 1.8 mph WSW2.9 kmh WSW 6.3 mph10.1 kmh 29.66 in1004.4 mb 0.00 in0.0 mm 0.00 in0.0 mm 0.00 in0.0 mm
03:08 AM 28.6°F-1.9°C -48.3°F-44.6°C 1% 1.5 mph WSW2.4 kmh WSW 7.0 mph11.3 kmh 29.66 in1004.4 mb 0.00 in0.0 mm 0.00 in0.0 mm 0.00 in0.0 mm
03:07 AM 28.6°F-1.9°C -48.3°F-44.6°C 1% 1.3 mph WSW2.1 kmh WSW 7.0 mph11.3 kmh 29.66 in1004.4 mb 0.00 in0.0 mm 0.00 in0.0 mm 0.00 in0.0 mm
03:06 AM 28.6°F-1.9°C -48.3°F-44.6°C 1% 2.2 mph SW3.5 kmh SW 7.0 mph11.3 kmh 29.66 in1004.4 mb 0.00 in0.0 mm 0.00 in0.0 mm 0.00 in0.0 mm
03:05 AM 28.6°F-1.9°C -48.3°F-44.6°C 1% 2.7 mph WSW4.3 kmh WSW 7.0 mph11.3 kmh 29.66 in1004.4 mb 0.00 in0.0 mm 0.00 in0.0 mm 0.00 in0.0 mm
03:04 AM 28.6°F-1.9°C -48.3°F-44.6°C 1% 2.4 mph WSW3.9 kmh WSW 7.0 mph11.3 kmh 29.66 in1004.4 mb 0.00 in0.0 mm 0.00 in0.0 mm 0.00 in0.0 mm
03:03 AM 28.6°F-1.9°C -48.3°F-44.6°C 1% 1.8 mph W2.9 kmh W 7.0 mph11.3 kmh 29.66 in1004.4 mb 0.00 in0.0 mm 0.00 in0.0 mm 0.00 in0.0 mm
03:02 AM 28.6°F-1.9°C -48.3°F-44.6°C 1% 2.3 mph WNW3.7 kmh WNW 7.0 mph11.3 kmh 29.66 in1004.4 mb 0.00 in0.0 mm 0.00 in0.0 mm 0.00 in0.0 mm
03:01 AM 28.6°F-1.9°C -48.3°F-44.6°C 1% 3.2 mph W5.1 kmh W 7.0 mph11.3 kmh 29.66 in1004.4 mb 0.00 in0.0 mm 0.00 in0.0 mm 0.00 in0.0 mm
03:00 AM 28.6°F-1.9°C -48.3°F-44.6°C 1% 3.0 mph WSW4.8 kmh WSW 7.0 mph11.3 kmh 29.66 in1004.4 mb 0.00 in0.0 mm 0.00 in0.0 mm 0.00 in0.0 mm
02:59 AM 28.6°F-1.9°C -48.3°F-44.6°C 1% 2.2 mph WSW3.5 kmh WSW 7.0 mph11.3 kmh 29.66 in1004.4 mb 0.00 in0.0 mm 0.00 in0.0 mm 0.00 in0.0 mm
02:58 AM 28.6°F-1.9°C -48.3°F-44.6°C 1% 1.5 mph W2.4 kmh W 4.4 mph7.1 kmh 29.66 in1004.4 mb 0.00 in0.0 mm 0.00 in0.0 mm 0.00 in0.0 mm
02:57 AM 28.6°F-1.9°C -48.3°F-44.6°C 1% 2.0 mph WSW3.2 kmh WSW 4.4 mph7.1 kmh 29.66 in1004.4 mb 0.00 in0.0 mm 0.00 in0.0 mm 0.00 in0.0 mm
02:56 AM 28.6°F-1.9°C -48.3°F-44.6°C 1% 2.6 mph WSW4.2 kmh WSW 4.4 mph7.1 kmh 29.66 in1004.4 mb 0.00 in0.0 mm 0.00 in0.0 mm 0.00 in0.0 mm
02:55 AM 28.6°F-1.9°C -48.3°F-44.6°C 1% 2.3 mph WNW3.7 kmh WNW 6.0 mph9.7 kmh 29.66 in1004.4 mb 0.00 in0.0 mm 0.00 in0.0 mm 0.00 in0.0 mm
02:54 AM 28.6°F-1.9°C -48.3°F-44.6°C 1% 1.6 mph WNW2.6 kmh WNW 6.0 mph9.7 kmh 29.66 in1004.4 mb 0.00 in0.0 mm 0.00 in0.0 mm 0.00 in0.0 mm
02:53 AM 28.6°F-1.9°C -48.3°F-44.6°C 1% 1.7 mph WSW2.7 kmh WSW 6.0 mph9.7 kmh 29.66 in1004.4 mb 0.00 in0.0 mm 0.00 in0.0 mm 0.00 in0.0 mm
02:52 AM 28.6°F-1.9°C -48.3°F-44.6°C 1% 2.1 mph WSW3.4 kmh WSW 6.0 mph9.7 kmh 29.66 in1004.4 mb 0.00 in0.0 mm 0.00 in0.0 mm 0.00 in0.0 mm
02:51 AM 28.6°F-1.9°C -48.3°F-44.6°C 1% 2.3 mph WSW3.7 kmh WSW 6.0 mph9.7 kmh 29.66 in1004.4 mb 0.00 in0.0 mm 0.00 in0.0 mm 0.00 in0.0 mm
02:50 AM 28.6°F-1.9°C -48.3°F-44.6°C 1% 2.1 mph WSW3.4 kmh WSW 6.0 mph9.7 kmh 29.66 in1004.4 mb 0.00 in0.0 mm 0.00 in0.0 mm 0.00 in0.0 mm
02:49 AM 28.6°F-1.9°C -48.3°F-44.6°C 1% 1.6 mph W2.6 kmh W 6.0 mph9.7 kmh 29.66 in1004.4 mb 0.00 in0.0 mm 0.00 in0.0 mm 0.00 in0.0 mm
02:48 AM 28.6°F-1.9°C -48.3°F-44.6°C 1% 1.8 mph WSW2.9 kmh WSW 6.0 mph9.7 kmh 29.66 in1004.4 mb 0.00 in0.0 mm 0.00 in0.0 mm 0.00 in0.0 mm
02:47 AM 28.6°F-1.9°C -48.3°F-44.6°C 1% 2.8 mph WSW4.5 kmh WSW 6.0 mph9.7 kmh 29.66 in1004.4 mb 0.00 in0.0 mm 0.00 in0.0 mm 0.00 in0.0 mm
02:46 AM 28.6°F-1.9°C -48.3°F-44.6°C 1% 3.3 mph WSW5.3 kmh WSW 7.0 mph11.3 kmh 29.66 in1004.4 mb 0.00 in0.0 mm 0.00 in0.0 mm 0.00 in0.0 mm
02:45 AM 28.6°F-1.9°C -48.3°F-44.6°C 1% 2.4 mph WSW3.9 kmh WSW 7.0 mph11.3 kmh 29.66 in1004.4 mb 0.00 in0.0 mm 0.00 in0.0 mm 0.00 in0.0 mm
02:44 AM 28.6°F-1.9°C -48.3°F-44.6°C 1% 2.2 mph WSW3.5 kmh WSW 7.0 mph11.3 kmh 29.66 in1004.4 mb 0.00 in0.0 mm 0.00 in0.0 mm 0.00 in0.0 mm
02:43 AM 28.6°F-1.9°C -48.3°F-44.6°C 1% 3.4 mph WSW5.5 kmh WSW 7.0 mph11.3 kmh 29.66 in1004.4 mb 0.00 in0.0 mm 0.00 in0.0 mm 0.00 in0.0 mm
02:42 AM 28.6°F-1.9°C -48.3°F-44.6°C 1% 3.5 mph WSW5.6 kmh WSW 7.0 mph11.3 kmh 29.66 in1004.4 mb 0.00 in0.0 mm 0.00 in0.0 mm 0.00 in0.0 mm
02:41 AM 28.6°F-1.9°C -48.3°F-44.6°C 1% 3.1 mph WSW5.0 kmh WSW 7.0 mph11.3 kmh 29.66 in1004.4 mb 0.00 in0.0 mm 0.00 in0.0 mm 0.00 in0.0 mm
02:40 AM 28.6°F-1.9°C -48.3°F-44.6°C 1% 3.0 mph WSW4.8 kmh WSW 7.0 mph11.3 kmh 29.66 in1004.4 mb 0.00 in0.0 mm 0.00 in0.0 mm 0.00 in0.0 mm
02:39 AM 28.6°F-1.9°C -48.3°F-44.6°C 1% 3.2 mph SW5.1 kmh SW 7.0 mph11.3 kmh 29.66 in1004.4 mb 0.00 in0.0 mm 0.00 in0.0 mm 0.00 in0.0 mm
02:38 AM 28.6°F-1.9°C -48.3°F-44.6°C 1% 3.6 mph WSW5.8 kmh WSW 7.0 mph11.3 kmh 29.66 in1004.4 mb 0.00 in0.0 mm 0.00 in0.0 mm 0.00 in0.0 mm
02:37 AM 28.6°F-1.9°C -48.3°F-44.6°C 1% 3.8 mph WSW6.1 kmh WSW 7.0 mph11.3 kmh 29.66 in1004.4 mb 0.00 in0.0 mm 0.00 in0.0 mm 0.00 in0.0 mm
02:36 AM 28.6°F-1.9°C -48.3°F-44.6°C 1% 3.8 mph WSW6.1 kmh WSW 7.0 mph11.3 kmh 29.66 in1004.4 mb 0.00 in0.0 mm 0.00 in0.0 mm 0.00 in0.0 mm
02:35 AM 28.8°F-1.8°C -48.2°F-44.6°C 1% 2.6 mph SW4.2 kmh SW 6.0 mph9.7 kmh 29.66 in1004.4 mb 0.00 in0.0 mm 0.00 in0.0 mm 0.00 in0.0 mm
02:34 AM 28.6°F-1.9°C -48.3°F-44.6°C 1% 2.2 mph WSW3.5 kmh WSW 6.0 mph9.7 kmh 29.66 in1004.4 mb 0.00 in0.0 mm 0.00 in0.0 mm 0.00 in0.0 mm
02:33 AM 28.6°F-1.9°C -48.3°F-44.6°C 1% 2.7 mph WSW4.3 kmh WSW 7.0 mph11.3 kmh 29.66 in1004.4 mb 0.00 in0.0 mm 0.00 in0.0 mm 0.00 in0.0 mm
02:32 AM 28.6°F-1.9°C -48.3°F-44.6°C 1% 3.1 mph WNW5.0 kmh WNW 7.0 mph11.3 kmh 29.66 in1004.4 mb 0.00 in0.0 mm 0.00 in0.0 mm 0.00 in0.0 mm
02:31 AM 28.6°F-1.9°C -48.3°F-44.6°C 1% 2.9 mph NW4.7 kmh NW 7.0 mph11.3 kmh 29.66 in1004.4 mb 0.00 in0.0 mm 0.00 in0.0 mm 0.00 in0.0 mm
02:30 AM 28.6°F-1.9°C -48.3°F-44.6°C 1% 2.8 mph WSW4.5 kmh WSW 7.0 mph11.3 kmh 29.66 in1004.4 mb 0.00 in0.0 mm 0.00 in0.0 mm 0.00 in0.0 mm
02:29 AM 28.6°F-1.9°C -48.3°F-44.6°C 1% 3.6 mph WSW5.8 kmh WSW 7.0 mph11.3 kmh 29.66 in1004.4 mb 0.00 in0.0 mm 0.00 in0.0 mm 0.00 in0.0 mm
02:28 AM 28.6°F-1.9°C -48.3°F-44.6°C 1% 3.1 mph WSW5.0 kmh WSW 7.0 mph11.3 kmh 29.66 in1004.4 mb 0.00 in0.0 mm 0.00 in0.0 mm 0.00 in0.0 mm
02:27 AM 28.6°F-1.9°C -48.3°F-44.6°C 1% 1.8 mph WSW2.9 kmh WSW 7.0 mph11.3 kmh 29.66 in1004.4 mb 0.00 in0.0 mm 0.00 in0.0 mm 0.00 in0.0 mm
02:26 AM 28.6°F-1.9°C -48.3°F-44.6°C 1% 1.7 mph WSW2.7 kmh WSW 7.0 mph11.3 kmh 29.66 in1004.4 mb 0.00 in0.0 mm 0.00 in0.0 mm 0.00 in0.0 mm
02:25 AM 28.6°F-1.9°C -48.3°F-44.6°C 1% 3.4 mph WSW5.5 kmh WSW 7.9 mph12.7 kmh 29.66 in1004.4 mb 0.00 in0.0 mm 0.00 in0.0 mm 0.00 in0.0 mm
02:24 AM 28.6°F-1.9°C -48.3°F-44.6°C 1% 3.9 mph WSW6.3 kmh WSW 7.9 mph12.7 kmh 29.66 in1004.4 mb 0.00 in0.0 mm 0.00 in0.0 mm 0.00 in0.0 mm
02:23 AM 28.6°F-1.9°C -48.3°F-44.6°C 1% 2.2 mph WSW3.5 kmh WSW 7.9 mph12.7 kmh 29.66 in1004.4 mb 0.00 in0.0 mm 0.00 in0.0 mm 0.00 in0.0 mm
02:22 AM 28.6°F-1.9°C -48.3°F-44.6°C 1% 1.7 mph WSW2.7 kmh WSW 7.9 mph12.7 kmh 29.65 in1004.1 mb 0.00 in0.0 mm 0.00 in0.0 mm 0.00 in0.0 mm
02:21 AM 28.6°F-1.9°C -48.3°F-44.6°C 1% 2.9 mph WSW4.7 kmh WSW 7.9 mph12.7 kmh 29.65 in1004.1 mb 0.00 in0.0 mm 0.00 in0.0 mm 0.00 in0.0 mm
02:20 AM 28.6°F-1.9°C -48.3°F-44.6°C 1% 3.1 mph WSW5.0 kmh WSW 7.9 mph12.7 kmh 29.65 in1004.1 mb 0.00 in0.0 mm 0.00 in0.0 mm 0.00 in0.0 mm
02:19 AM 28.6°F-1.9°C -48.3°F-44.6°C 1% 1.8 mph WSW2.9 kmh WSW 7.9 mph12.7 kmh 29.65 in1004.1 mb 0.00 in0.0 mm 0.00 in0.0 mm 0.00 in0.0 mm
02:18 AM 28.6°F-1.9°C -48.3°F-44.6°C 1% 1.6 mph WSW2.6 kmh WSW 7.9 mph12.7 kmh 29.65 in1004.1 mb 0.00 in0.0 mm 0.00 in0.0 mm 0.00 in0.0 mm
02:17 AM 28.6°F-1.9°C -48.3°F-44.6°C 1% 2.4 mph WSW3.9 kmh WSW 7.9 mph12.7 kmh 29.65 in1004.1 mb 0.00 in0.0 mm 0.00 in0.0 mm 0.00 in0.0 mm
02:16 AM 28.6°F-1.9°C -48.3°F-44.6°C 1% 3.0 mph WSW4.8 kmh WSW 7.9 mph12.7 kmh 29.65 in1004.1 mb 0.00 in0.0 mm 0.00 in0.0 mm 0.00 in0.0 mm
02:15 AM 28.6°F-1.9°C -48.3°F-44.6°C 1% 2.8 mph WSW4.5 kmh WSW 7.9 mph12.7 kmh 29.66 in1004.4 mb 0.00 in0.0 mm 0.00 in0.0 mm 0.00 in0.0 mm
02:14 AM 28.6°F-1.9°C -48.3°F-44.6°C 1% 2.4 mph SW3.9 kmh SW 6.0 mph9.7 kmh 29.66 in1004.4 mb 0.00 in0.0 mm 0.00 in0.0 mm 0.00 in0.0 mm
02:13 AM 28.6°F-1.9°C -48.3°F-44.6°C 1% 1.8 mph SW2.9 kmh SW 6.0 mph9.7 kmh 29.65 in1004.1 mb 0.00 in0.0 mm 0.00 in0.0 mm 0.00 in0.0 mm
02:12 AM 28.6°F-1.9°C -48.3°F-44.6°C 1% 2.3 mph W3.7 kmh W 6.0 mph9.7 kmh 29.65 in1004.1 mb 0.00 in0.0 mm 0.00 in0.0 mm 0.00 in0.0 mm
02:11 AM 28.6°F-1.9°C -48.3°F-44.6°C 1% 3.2 mph W5.1 kmh W 6.0 mph9.7 kmh 29.66 in1004.4 mb 0.00 in0.0 mm 0.00 in0.0 mm 0.00 in0.0 mm
02:10 AM 28.6°F-1.9°C -48.3°F-44.6°C 1% 2.3 mph W3.7 kmh W 6.0 mph9.7 kmh 29.65 in1004.1 mb 0.00 in0.0 mm 0.00 in0.0 mm 0.00 in0.0 mm
02:09 AM 28.6°F-1.9°C -48.3°F-44.6°C 1% 1.9 mph WSW3.1 kmh WSW 6.0 mph9.7 kmh 29.65 in1004.1 mb 0.00 in0.0 mm 0.00 in0.0 mm 0.00 in0.0 mm
02:08 AM 28.6°F-1.9°C -48.3°F-44.6°C 1% 1.6 mph WSW2.6 kmh WSW 6.0 mph9.7 kmh 29.65 in1004.1 mb 0.00 in0.0 mm 0.00 in0.0 mm 0.00 in0.0 mm
02:07 AM 28.6°F-1.9°C -48.3°F-44.6°C 1% 1.6 mph WSW2.6 kmh WSW 6.0 mph9.7 kmh 29.65 in1004.1 mb 0.00 in0.0 mm 0.00 in0.0 mm 0.00 in0.0 mm
02:06 AM 28.6°F-1.9°C -48.3°F-44.6°C 1% 2.5 mph WSW4.0 kmh WSW 6.0 mph9.7 kmh 29.65 in1004.1 mb 0.00 in0.0 mm 0.00 in0.0 mm 0.00 in0.0 mm
02:05 AM 28.6°F-1.9°C -48.3°F-44.6°C 1% 2.4 mph WSW3.9 kmh WSW 6.3 mph10.1 kmh 29.65 in1004.1 mb 0.00 in0.0 mm 0.00 in0.0 mm 0.00 in0.0 mm
02:04 AM 28.6°F-1.9°C -48.3°F-44.6°C 1% 1.6 mph WSW2.6 kmh WSW 6.3 mph10.1 kmh 29.65 in1004.1 mb 0.00 in0.0 mm 0.00 in0.0 mm 0.00 in0.0 mm
02:03 AM 28.6°F-1.9°C -48.3°F-44.6°C 1% 1.8 mph WSW2.9 kmh WSW 6.3 mph10.1 kmh 29.65 in1004.1 mb 0.00 in0.0 mm 0.00 in0.0 mm 0.00 in0.0 mm
02:02 AM 28.6°F-1.9°C -48.3°F-44.6°C 1% 1.7 mph WSW2.7 kmh WSW 6.3 mph10.1 kmh 29.65 in1004.1 mb 0.00 in0.0 mm 0.00 in0.0 mm 0.00 in0.0 mm
02:01 AM 28.6°F-1.9°C -48.3°F-44.6°C 1% 2.0 mph WSW3.2 kmh WSW 6.3 mph10.1 kmh 29.65 in1004.1 mb 0.00 in0.0 mm 0.00 in0.0 mm 0.00 in0.0 mm
02:00 AM 28.6°F-1.9°C -48.3°F-44.6°C 1% 1.9 mph SW3.1 kmh SW 6.3 mph10.1 kmh 29.65 in1004.1 mb 0.00 in0.0 mm 0.00 in0.0 mm 0.00 in0.0 mm
01:59 AM 28.6°F-1.9°C -48.3°F-44.6°C 1% 2.0 mph WSW3.2 kmh WSW 6.3 mph10.1 kmh 29.65 in1004.1 mb 0.00 in0.0 mm 0.00 in0.0 mm 0.00 in0.0 mm
01:58 AM 28.6°F-1.9°C -48.3°F-44.6°C 1% 2.3 mph W3.7 kmh W 6.3 mph10.1 kmh 29.65 in1004.1 mb 0.00 in0.0 mm 0.00 in0.0 mm 0.00 in0.0 mm
01:57 AM 28.6°F-1.9°C -48.3°F-44.6°C 1% 2.8 mph WSW4.5 kmh WSW 6.3 mph10.1 kmh 29.65 in1004.1 mb 0.00 in0.0 mm 0.00 in0.0 mm 0.00 in0.0 mm
01:56 AM 28.6°F-1.9°C -48.3°F-44.6°C 1% 3.9 mph WSW6.3 kmh WSW 6.3 mph10.1 kmh 29.65 in1004.1 mb 0.00 in0.0 mm 0.00 in0.0 mm 0.00 in0.0 mm
01:55 AM 28.6°F-1.9°C -48.3°F-44.6°C 1% 3.3 mph WSW5.3 kmh WSW 6.0 mph9.7 kmh 29.65 in1004.1 mb 0.00 in0.0 mm 0.00 in0.0 mm 0.00 in0.0 mm
01:54 AM 28.6°F-1.9°C -48.3°F-44.6°C 1% 2.2 mph WSW3.5 kmh WSW 6.0 mph9.7 kmh 29.65 in1004.1 mb 0.00 in0.0 mm 0.00 in0.0 mm 0.00 in0.0 mm
01:53 AM 28.6°F-1.9°C -48.3°F-44.6°C 1% 2.4 mph WSW3.9 kmh WSW 6.0 mph9.7 kmh 29.65 in1004.1 mb 0.00 in0.0 mm 0.00 in0.0 mm 0.00 in0.0 mm
01:52 AM 28.6°F-1.9°C -48.3°F-44.6°C 1% 2.7 mph W4.3 kmh W 6.0 mph9.7 kmh 29.65 in1004.1 mb 0.00 in0.0 mm 0.00 in0.0 mm 0.00 in0.0 mm
01:51 AM 28.6°F-1.9°C -48.3°F-44.6°C 1% 2.3 mph W3.7 kmh W 6.0 mph9.7 kmh 29.65 in1004.1 mb 0.00 in0.0 mm 0.00 in0.0 mm 0.00 in0.0 mm
01:50 AM 28.6°F-1.9°C -48.3°F-44.6°C 1% 2.6 mph WSW4.2 kmh WSW 6.0 mph9.7 kmh 29.65 in1004.1 mb 0.00 in0.0 mm 0.00 in0.0 mm 0.00 in0.0 mm
01:49 AM 28.6°F-1.9°C -48.3°F-44.6°C 1% 2.7 mph WSW4.3 kmh WSW 6.0 mph9.7 kmh 29.65 in1004.1 mb 0.00 in0.0 mm 0.00 in0.0 mm 0.00 in0.0 mm
01:48 AM 28.6°F-1.9°C -48.3°F-44.6°C 1% 2.8 mph WSW4.5 kmh WSW 6.0 mph9.7 kmh 29.64 in1003.7 mb 0.00 in0.0 mm 0.00 in0.0 mm 0.00 in0.0 mm
01:47 AM 28.6°F-1.9°C -48.3°F-44.6°C 1% 2.4 mph WSW3.9 kmh WSW 6.0 mph9.7 kmh 29.64 in1003.7 mb 0.00 in0.0 mm 0.00 in0.0 mm 0.00 in0.0 mm
01:46 AM 28.6°F-1.9°C -48.3°F-44.6°C 1% 1.8 mph WSW2.9 kmh WSW 5.4 mph8.7 kmh 29.64 in1003.7 mb 0.00 in0.0 mm 0.00 in0.0 mm 0.00 in0.0 mm
01:45 AM 28.6°F-1.9°C -48.3°F-44.6°C 1% 2.2 mph WSW3.5 kmh WSW 5.4 mph8.7 kmh 29.64 in1003.7 mb 0.00 in0.0 mm 0.00 in0.0 mm 0.00 in0.0 mm
01:44 AM 28.6°F-1.9°C -48.3°F-44.6°C 1% 3.0 mph WSW4.8 kmh WSW 5.4 mph8.7 kmh 29.64 in1003.7 mb 0.00 in0.0 mm 0.00 in0.0 mm 0.00 in0.0 mm
01:43 AM 28.6°F-1.9°C -48.3°F-44.6°C 1% 2.5 mph WSW4.0 kmh WSW 5.4 mph8.7 kmh 29.64 in1003.7 mb 0.00 in0.0 mm 0.00 in0.0 mm 0.00 in0.0 mm
01:42 AM 28.6°F-1.9°C -48.3°F-44.6°C 1% 1.7 mph WSW2.7 kmh WSW 4.7 mph7.6 kmh 29.64 in1003.7 mb 0.00 in0.0 mm 0.00 in0.0 mm 0.00 in0.0 mm
01:41 AM 28.6°F-1.9°C -48.3°F-44.6°C 1% 2.1 mph WSW3.4 kmh WSW 4.7 mph7.6 kmh 29.65 in1004.1 mb 0.00 in0.0 mm 0.00 in0.0 mm 0.00 in0.0 mm
01:40 AM 28.6°F-1.9°C -48.3°F-44.6°C 1% 2.1 mph WSW3.4 kmh WSW 4.7 mph7.6 kmh 29.65 in1004.1 mb 0.00 in0.0 mm 0.00 in0.0 mm 0.00 in0.0 mm
01:39 AM 28.6°F-1.9°C -48.3°F-44.6°C 1% 1.9 mph WSW3.1 kmh WSW 4.7 mph7.6 kmh 29.65 in1004.1 mb 0.00 in0.0 mm 0.00 in0.0 mm 0.00 in0.0 mm
01:38 AM 28.6°F-1.9°C -48.3°F-44.6°C 1% 1.7 mph W2.7 kmh W 4.7 mph7.6 kmh 29.64 in1003.7 mb 0.00 in0.0 mm 0.00 in0.0 mm 0.00 in0.0 mm
01:37 AM 28.6°F-1.9°C -48.3°F-44.6°C 1% 1.4 mph W2.3 kmh W 4.7 mph7.6 kmh 29.64 in1003.7 mb 0.00 in0.0 mm 0.00 in0.0 mm 0.00 in0.0 mm
01:36 AM 28.6°F-1.9°C -48.3°F-44.6°C 1% 1.3 mph WSW2.1 kmh WSW 4.7 mph7.6 kmh 29.64 in1003.7 mb 0.00 in0.0 mm 0.00 in0.0 mm 0.00 in0.0 mm
01:35 AM 28.6°F-1.9°C -48.3°F-44.6°C 1% 1.9 mph WSW3.1 kmh WSW 6.3 mph10.1 kmh 29.64 in1003.7 mb 0.00 in0.0 mm 0.00 in0.0 mm 0.00 in0.0 mm
01:34 AM 28.6°F-1.9°C -48.3°F-44.6°C 1% 2.1 mph WSW3.4 kmh WSW 6.3 mph10.1 kmh 29.64 in1003.7 mb 0.00 in0.0 mm 0.00 in0.0 mm 0.00 in0.0 mm
01:33 AM 28.6°F-1.9°C -48.3°F-44.6°C 1% 2.0 mph WSW3.2 kmh WSW 6.3 mph10.1 kmh 29.64 in1003.7 mb 0.00 in0.0 mm 0.00 in0.0 mm 0.00 in0.0 mm
01:32 AM 28.6°F-1.9°C -48.3°F-44.6°C 1% 2.5 mph SW4.0 kmh SW 6.3 mph10.1 kmh 29.64 in1003.7 mb 0.00 in0.0 mm 0.00 in0.0 mm 0.00 in0.0 mm
01:31 AM 28.6°F-1.9°C -48.3°F-44.6°C 1% 1.6 mph SW2.6 kmh SW 6.3 mph10.1 kmh 29.64 in1003.7 mb 0.00 in0.0 mm 0.00 in0.0 mm 0.00 in0.0 mm
01:30 AM 28.6°F-1.9°C -48.3°F-44.6°C 1% 1.6 mph WSW2.6 kmh WSW 6.3 mph10.1 kmh 29.64 in1003.7 mb 0.00 in0.0 mm 0.00 in0.0 mm 0.00 in0.0 mm
01:29 AM 28.6°F-1.9°C -48.3°F-44.6°C 1% 1.8 mph WSW2.9 kmh WSW 6.3 mph10.1 kmh 29.64 in1003.7 mb 0.00 in0.0 mm 0.00 in0.0 mm 0.00 in0.0 mm
01:28 AM 28.6°F-1.9°C -48.3°F-44.6°C 1% 1.7 mph WSW2.7 kmh WSW 6.3 mph10.1 kmh 29.64 in1003.7 mb 0.00 in0.0 mm 0.00 in0.0 mm 0.00 in0.0 mm
01:27 AM 28.6°F-1.9°C -48.3°F-44.6°C 1% 1.8 mph W2.9 kmh W 6.3 mph10.1 kmh 29.64 in1003.7 mb 0.00 in0.0 mm 0.00 in0.0 mm 0.00 in0.0 mm
01:26 AM 28.6°F-1.9°C -48.3°F-44.6°C 1% 2.6 mph W4.2 kmh W 6.3 mph10.1 kmh 29.64 in1003.7 mb 0.00 in0.0 mm 0.00 in0.0 mm 0.00 in0.0 mm
01:25 AM 28.6°F-1.9°C -48.3°F-44.6°C 1% 1.9 mph WSW3.1 kmh WSW 6.3 mph10.1 kmh 29.64 in1003.7 mb 0.00 in0.0 mm 0.00 in0.0 mm 0.00 in0.0 mm
01:24 AM 28.6°F-1.9°C -48.3°F-44.6°C 1% 1.3 mph WSW2.1 kmh WSW 4.7 mph7.6 kmh 29.64 in1003.7 mb 0.00 in0.0 mm 0.00 in0.0 mm 0.00 in0.0 mm
01:23 AM 28.6°F-1.9°C -48.3°F-44.6°C 1% 1.6 mph SW2.6 kmh SW 4.7 mph7.6 kmh 29.64 in1003.7 mb 0.00 in0.0 mm 0.00 in0.0 mm 0.00 in0.0 mm
01:22 AM 28.6°F-1.9°C -48.3°F-44.6°C 1% 1.2 mph SW1.9 kmh SW 4.7 mph7.6 kmh 29.64 in1003.7 mb 0.00 in0.0 mm 0.00 in0.0 mm 0.00 in0.0 mm
01:21 AM 28.6°F-1.9°C -48.3°F-44.6°C 1% 1.2 mph WSW1.9 kmh WSW 4.7 mph7.6 kmh 29.64 in1003.7 mb 0.00 in0.0 mm 0.00 in0.0 mm 0.00 in0.0 mm
01:20 AM 28.6°F-1.9°C -48.3°F-44.6°C 1% 1.0 mph WSW1.6 kmh WSW 4.7 mph7.6 kmh 29.64 in1003.7 mb 0.00 in0.0 mm 0.00 in0.0 mm 0.00 in0.0 mm
01:19 AM 28.6°F-1.9°C -48.3°F-44.6°C 1% 1.2 mph SW1.9 kmh SW 4.7 mph7.6 kmh 29.64 in1003.7 mb 0.00 in0.0 mm 0.00 in0.0 mm 0.00 in0.0 mm
01:18 AM 28.6°F-1.9°C -48.3°F-44.6°C 1% 1.8 mph SW2.9 kmh SW 4.7 mph7.6 kmh 29.64 in1003.7 mb 0.00 in0.0 mm 0.00 in0.0 mm 0.00 in0.0 mm
01:17 AM 28.6°F-1.9°C -48.3°F-44.6°C 1% 1.9 mph WSW3.1 kmh WSW 4.7 mph7.6 kmh 29.64 in1003.7 mb 0.00 in0.0 mm 0.00 in0.0 mm 0.00 in0.0 mm
01:16 AM 28.6°F-1.9°C -48.3°F-44.6°C 1% 1.7 mph WSW2.7 kmh WSW 4.7 mph7.6 kmh 29.64 in1003.7 mb 0.00 in0.0 mm 0.00 in0.0 mm 0.00 in0.0 mm
01:15 AM 28.6°F-1.9°C -48.3°F-44.6°C 1% 2.4 mph WSW3.9 kmh WSW 4.7 mph7.6 kmh 29.64 in1003.7 mb 0.00 in0.0 mm 0.00 in0.0 mm 0.00 in0.0 mm
01:14 AM 28.6°F-1.9°C -48.3°F-44.6°C 1% 2.3 mph WSW3.7 kmh WSW 4.7 mph7.6 kmh 29.64 in1003.7 mb 0.00 in0.0 mm 0.00 in0.0 mm 0.00 in0.0 mm
01:13 AM 28.6°F-1.9°C -48.3°F-44.6°C 1% 1.5 mph WSW2.4 kmh WSW 4.7 mph7.6 kmh 29.64 in1003.7 mb 0.00 in0.0 mm 0.00 in0.0 mm 0.00 in0.0 mm
01:12 AM 28.6°F-1.9°C -48.3°F-44.6°C 1% 1.1 mph W1.8 kmh W 3.1 mph5.0 kmh 29.64 in1003.7 mb 0.00 in0.0 mm 0.00 in0.0 mm 0.00 in0.0 mm
01:11 AM 28.6°F-1.9°C -48.3°F-44.6°C 1% 1.1 mph W1.8 kmh W 3.1 mph5.0 kmh 29.64 in1003.7 mb 0.00 in0.0 mm 0.00 in0.0 mm 0.00 in0.0 mm
01:10 AM 28.6°F-1.9°C -48.3°F-44.6°C 1% 1.4 mph WSW2.3 kmh WSW 3.1 mph5.0 kmh 29.64 in1003.7 mb 0.00 in0.0 mm 0.00 in0.0 mm 0.00 in0.0 mm
01:09 AM 28.6°F-1.9°C -48.3°F-44.6°C 1% 0.9 mph WSW1.4 kmh WSW 3.1 mph5.0 kmh 29.63 in1003.4 mb 0.00 in0.0 mm 0.00 in0.0 mm 0.00 in0.0 mm
01:08 AM 28.6°F-1.9°C -48.3°F-44.6°C 1% 0.5 mph WSW0.8 kmh WSW 1.9 mph3.1 kmh 29.64 in1003.7 mb 0.00 in0.0 mm 0.00 in0.0 mm 0.00 in0.0 mm
01:07 AM 28.8°F-1.8°C -48.2°F-44.6°C 1% 0.9 mph W1.4 kmh W 2.8 mph4.5 kmh 29.64 in1003.7 mb 0.00 in0.0 mm 0.00 in0.0 mm 0.00 in0.0 mm
01:06 AM 28.6°F-1.9°C -48.3°F-44.6°C 1% 1.2 mph WSW1.9 kmh WSW 2.8 mph4.5 kmh 29.64 in1003.7 mb 0.00 in0.0 mm 0.00 in0.0 mm 0.00 in0.0 mm
01:05 AM 28.6°F-1.9°C -48.3°F-44.6°C 1% 1.3 mph WSW2.1 kmh WSW 2.8 mph4.5 kmh 29.63 in1003.4 mb 0.00 in0.0 mm 0.00 in0.0 mm 0.00 in0.0 mm
01:04 AM 28.6°F-1.9°C -48.3°F-44.6°C 1% 1.4 mph W2.3 kmh W 3.9 mph6.3 kmh 29.63 in1003.4 mb 0.00 in0.0 mm 0.00 in0.0 mm 0.00 in0.0 mm
01:03 AM 28.6°F-1.9°C -48.3°F-44.6°C 1% 1.2 mph W1.9 kmh W 3.9 mph6.3 kmh 29.63 in1003.4 mb 0.00 in0.0 mm 0.00 in0.0 mm 0.00 in0.0 mm
01:02 AM 28.8°F-1.8°C -48.2°F-44.6°C 1% 0.9 mph WSW1.4 kmh WSW 3.9 mph6.3 kmh 29.63 in1003.4 mb 0.00 in0.0 mm 0.00 in0.0 mm 0.00 in0.0 mm
01:01 AM 28.8°F-1.8°C -48.2°F-44.6°C 1% 1.1 mph WSW1.8 kmh WSW 3.9 mph6.3 kmh 29.63 in1003.4 mb 0.00 in0.0 mm 0.00 in0.0 mm 0.00 in0.0 mm
01:00 AM 28.8°F-1.8°C -48.2°F-44.6°C 1% 1.3 mph WSW2.1 kmh WSW 3.9 mph6.3 kmh 29.63 in1003.4 mb 0.00 in0.0 mm 0.00 in0.0 mm 0.00 in0.0 mm
12:59 AM 28.8°F-1.8°C -48.2°F-44.6°C 1% 1.2 mph WSW1.9 kmh WSW 3.9 mph6.3 kmh 29.63 in1003.4 mb 0.00 in0.0 mm 0.00 in0.0 mm 0.00 in0.0 mm
12:58 AM 28.8°F-1.8°C -48.2°F-44.6°C 1% 1.3 mph WSW2.1 kmh WSW 7.0 mph11.3 kmh 29.63 in1003.4 mb 0.00 in0.0 mm 0.00 in0.0 mm 0.00 in0.0 mm
12:57 AM 28.8°F-1.8°C -48.2°F-44.6°C 1% 1.0 mph WSW1.6 kmh WSW 7.0 mph11.3 kmh 29.63 in1003.4 mb 0.00 in0.0 mm 0.00 in0.0 mm 0.00 in0.0 mm
12:56 AM 28.8°F-1.8°C -48.2°F-44.6°C 1% 1.4 mph SW2.3 kmh SW 7.0 mph11.3 kmh 29.63 in1003.4 mb 0.00 in0.0 mm 0.00 in0.0 mm 0.00 in0.0 mm
12:55 AM 28.8°F-1.8°C -48.2°F-44.6°C 1% 1.5 mph WSW2.4 kmh WSW 7.0 mph11.3 kmh 29.63 in1003.4 mb 0.00 in0.0 mm 0.00 in0.0 mm 0.00 in0.0 mm
12:54 AM 28.8°F-1.8°C -48.2°F-44.6°C 1% 0.9 mph WSW1.4 kmh WSW 7.0 mph11.3 kmh 29.63 in1003.4 mb 0.00 in0.0 mm 0.00 in0.0 mm 0.00 in0.0 mm
12:53 AM 28.8°F-1.8°C -48.2°F-44.6°C 1% 1.5 mph WSW2.4 kmh WSW 7.0 mph11.3 kmh 29.63 in1003.4 mb 0.00 in0.0 mm 0.00 in0.0 mm 0.00 in0.0 mm
12:52 AM 28.8°F-1.8°C -48.2°F-44.6°C 1% 2.2 mph WSW3.5 kmh WSW 7.0 mph11.3 kmh 29.63 in1003.4 mb 0.00 in0.0 mm 0.00 in0.0 mm 0.00 in0.0 mm
12:51 AM 28.8°F-1.8°C -48.2°F-44.6°C 1% 2.2 mph WSW3.5 kmh WSW 7.0 mph11.3 kmh 29.63 in1003.4 mb 0.00 in0.0 mm 0.00 in0.0 mm 0.00 in0.0 mm
12:50 AM 28.8°F-1.8°C -48.2°F-44.6°C 1% 2.2 mph WSW3.5 kmh WSW 7.0 mph11.3 kmh 29.63 in1003.4 mb 0.00 in0.0 mm 0.00 in0.0 mm 0.00 in0.0 mm
12:49 AM 28.8°F-1.8°C -48.2°F-44.6°C 1% 3.0 mph SW4.8 kmh SW 7.0 mph11.3 kmh 29.63 in1003.4 mb 0.00 in0.0 mm 0.00 in0.0 mm 0.00 in0.0 mm
12:48 AM 28.8°F-1.8°C -48.2°F-44.6°C 1% 3.6 mph SW5.8 kmh SW 7.0 mph11.3 kmh 29.63 in1003.4 mb 0.00 in0.0 mm 0.00 in0.0 mm 0.00 in0.0 mm
12:47 AM 28.8°F-1.8°C -48.2°F-44.6°C 1% 2.1 mph WSW3.4 kmh WSW 6.0 mph9.7 kmh 29.63 in1003.4 mb 0.00 in0.0 mm 0.00 in0.0 mm 0.00 in0.0 mm
12:46 AM 28.8°F-1.8°C -48.2°F-44.6°C 1% 1.6 mph WSW2.6 kmh WSW 6.3 mph10.1 kmh 29.63 in1003.4 mb 0.00 in0.0 mm 0.00 in0.0 mm 0.00 in0.0 mm
12:45 AM 28.8°F-1.8°C -48.2°F-44.6°C 1% 1.9 mph SW3.1 kmh SW 6.3 mph10.1 kmh 29.63 in1003.4 mb 0.00 in0.0 mm 0.00 in0.0 mm 0.00 in0.0 mm
12:44 AM 28.8°F-1.8°C -48.2°F-44.6°C 1% 1.6 mph WSW2.6 kmh WSW 6.3 mph10.1 kmh 29.63 in1003.4 mb 0.00 in0.0 mm 0.00 in0.0 mm 0.00 in0.0 mm
12:43 AM 28.8°F-1.8°C -48.2°F-44.6°C 1% 1.6 mph WSW2.6 kmh WSW 6.3 mph10.1 kmh 29.63 in1003.4 mb 0.00 in0.0 mm 0.00 in0.0 mm 0.00 in0.0 mm
12:42 AM 28.8°F-1.8°C -48.2°F-44.6°C 1% 1.7 mph WSW2.7 kmh WSW 7.9 mph12.7 kmh 29.63 in1003.4 mb 0.00 in0.0 mm 0.00 in0.0 mm 0.00 in0.0 mm
12:41 AM 29.0°F-1.7°C -48.1°F-44.5°C 1% 2.4 mph WSW3.9 kmh WSW 7.9 mph12.7 kmh 29.63 in1003.4 mb 0.00 in0.0 mm 0.00 in0.0 mm 0.00 in0.0 mm
12:40 AM 29.0°F-1.7°C -48.1°F-44.5°C 1% 3.5 mph WSW5.6 kmh WSW 7.9 mph12.7 kmh 29.63 in1003.4 mb 0.00 in0.0 mm 0.00 in0.0 mm 0.00 in0.0 mm
12:39 AM 29.0°F-1.7°C -48.1°F-44.5°C 1% 3.1 mph WSW5.0 kmh WSW 8.2 mph13.2 kmh 29.63 in1003.4 mb 0.00 in0.0 mm 0.00 in0.0 mm 0.00 in0.0 mm
12:38 AM 29.0°F-1.7°C -48.1°F-44.5°C 1% 3.2 mph WSW5.1 kmh WSW 8.2 mph13.2 kmh 29.63 in1003.4 mb 0.00 in0.0 mm 0.00 in0.0 mm 0.00 in0.0 mm
12:37 AM 29.0°F-1.7°C -48.1°F-44.5°C 1% 2.4 mph WSW3.9 kmh WSW 8.2 mph13.2 kmh 29.63 in1003.4 mb 0.00 in0.0 mm 0.00 in0.0 mm 0.00 in0.0 mm
12:36 AM 29.0°F-1.7°C -48.1°F-44.5°C 1% 1.0 mph WSW1.6 kmh WSW 8.2 mph13.2 kmh 29.62 in1003.0 mb 0.00 in0.0 mm 0.00 in0.0 mm 0.00 in0.0 mm
12:35 AM 29.0°F-1.7°C -48.1°F-44.5°C 1% 1.1 mph WSW1.8 kmh WSW 8.2 mph13.2 kmh 29.62 in1003.0 mb 0.00 in0.0 mm 0.00 in0.0 mm 0.00 in0.0 mm
12:34 AM 29.0°F-1.7°C -48.1°F-44.5°C 1% 2.1 mph WSW3.4 kmh WSW 8.2 mph13.2 kmh 29.62 in1003.0 mb 0.00 in0.0 mm 0.00 in0.0 mm 0.00 in0.0 mm
12:33 AM 29.0°F-1.7°C -48.1°F-44.5°C 1% 2.9 mph WSW4.7 kmh WSW 8.2 mph13.2 kmh 29.62 in1003.0 mb 0.00 in0.0 mm 0.00 in0.0 mm 0.00 in0.0 mm
12:32 AM 29.0°F-1.7°C -48.1°F-44.5°C 1% 2.9 mph WSW4.7 kmh WSW 8.2 mph13.2 kmh 29.62 in1003.0 mb 0.00 in0.0 mm 0.00 in0.0 mm 0.00 in0.0 mm
12:31 AM 29.0°F-1.7°C -48.1°F-44.5°C 1% 3.9 mph WSW6.3 kmh WSW 8.2 mph13.2 kmh 29.62 in1003.0 mb 0.00 in0.0 mm 0.00 in0.0 mm 0.00 in0.0 mm
12:30 AM 29.0°F-1.7°C -48.1°F-44.5°C 1% 3.7 mph WSW6.0 kmh WSW 8.2 mph13.2 kmh 29.62 in1003.0 mb 0.00 in0.0 mm 0.00 in0.0 mm 0.00 in0.0 mm
12:29 AM 29.0°F-1.7°C -48.1°F-44.5°C 1% 2.7 mph SW4.3 kmh SW 8.2 mph13.2 kmh 29.62 in1003.0 mb 0.00 in0.0 mm 0.00 in0.0 mm 0.00 in0.0 mm
12:28 AM 29.0°F-1.7°C -48.1°F-44.5°C 1% 2.1 mph WSW3.4 kmh WSW 4.7 mph7.6 kmh 29.62 in1003.0 mb 0.00 in0.0 mm 0.00 in0.0 mm 0.00 in0.0 mm
12:27 AM 29.0°F-1.7°C -48.1°F-44.5°C 1% 2.2 mph W3.5 kmh W 5.1 mph8.2 kmh 29.62 in1003.0 mb 0.00 in0.0 mm 0.00 in0.0 mm 0.00 in0.0 mm
12:26 AM 29.0°F-1.7°C -48.1°F-44.5°C 1% 2.7 mph W4.3 kmh W 5.4 mph8.7 kmh 29.62 in1003.0 mb 0.00 in0.0 mm 0.00 in0.0 mm 0.00 in0.0 mm
12:25 AM 29.0°F-1.7°C -48.1°F-44.5°C 1% 2.2 mph W3.5 kmh W 5.4 mph8.7 kmh 29.62 in1003.0 mb 0.00 in0.0 mm 0.00 in0.0 mm 0.00 in0.0 mm
12:24 AM 29.0°F-1.7°C -48.1°F-44.5°C 1% 1.1 mph WSW1.8 kmh WSW 5.4 mph8.7 kmh 29.62 in1003.0 mb 0.00 in0.0 mm 0.00 in0.0 mm 0.00 in0.0 mm
12:23 AM 29.0°F-1.7°C -48.1°F-44.5°C 1% 1.6 mph WSW2.6 kmh WSW 5.4 mph8.7 kmh 29.62 in1003.0 mb 0.00 in0.0 mm 0.00 in0.0 mm 0.00 in0.0 mm
12:22 AM 29.0°F-1.7°C -48.1°F-44.5°C 1% 1.7 mph WSW2.7 kmh WSW 5.4 mph8.7 kmh 29.62 in1003.0 mb 0.00 in0.0 mm 0.00 in0.0 mm 0.00 in0.0 mm
12:21 AM 29.0°F-1.7°C -48.1°F-44.5°C 1% 1.0 mph W1.6 kmh W 6.0 mph9.7 kmh 29.62 in1003.0 mb 0.00 in0.0 mm 0.00 in0.0 mm 0.00 in0.0 mm
12:20 AM 29.0°F-1.7°C -48.1°F-44.5°C 1% 1.7 mph W2.7 kmh W 7.9 mph12.7 kmh 29.62 in1003.0 mb 0.00 in0.0 mm 0.00 in0.0 mm 0.00 in0.0 mm
12:19 AM 29.0°F-1.7°C -48.1°F-44.5°C 1% 2.9 mph WSW4.7 kmh WSW 11.0 mph17.7 kmh 29.62 in1003.0 mb 0.00 in0.0 mm 0.00 in0.0 mm 0.00 in0.0 mm
12:18 AM 29.0°F-1.7°C -48.1°F-44.5°C 1% 3.8 mph WSW6.1 kmh WSW 11.0 mph17.7 kmh 29.62 in1003.0 mb 0.00 in0.0 mm 0.00 in0.0 mm 0.00 in0.0 mm
12:17 AM 29.2°F-1.6°C -47.9°F-44.4°C 1% 2.8 mph WSW4.5 kmh WSW 11.0 mph17.7 kmh 29.62 in1003.0 mb 0.00 in0.0 mm 0.00 in0.0 mm 0.00 in0.0 mm
12:16 AM 29.2°F-1.6°C -47.9°F-44.4°C 1% 1.7 mph WSW2.7 kmh WSW 11.0 mph17.7 kmh 29.62 in1003.0 mb 0.00 in0.0 mm 0.00 in0.0 mm 0.00 in0.0 mm
12:15 AM 29.2°F-1.6°C -47.9°F-44.4°C 1% 2.6 mph WSW4.2 kmh WSW 11.0 mph17.7 kmh 29.62 in1003.0 mb 0.00 in0.0 mm 0.00 in0.0 mm 0.00 in0.0 mm
12:14 AM 29.2°F-1.6°C -47.9°F-44.4°C 1% 2.8 mph WSW4.5 kmh WSW 11.0 mph17.7 kmh 29.62 in1003.0 mb 0.00 in0.0 mm 0.00 in0.0 mm 0.00 in0.0 mm
12:13 AM 29.2°F-1.6°C -47.9°F-44.4°C 1% 3.1 mph WSW5.0 kmh WSW 11.0 mph17.7 kmh 29.62 in1003.0 mb 0.00 in0.0 mm 0.00 in0.0 mm 0.00 in0.0 mm
12:12 AM 29.2°F-1.6°C -47.9°F-44.4°C 1% 4.9 mph WSW7.9 kmh WSW 11.0 mph17.7 kmh 29.62 in1003.0 mb 0.00 in0.0 mm 0.00 in0.0 mm 0.00 in0.0 mm
12:11 AM 29.2°F-1.6°C -47.9°F-44.4°C 1% 5.4 mph WSW8.7 kmh WSW 11.0 mph17.7 kmh 29.62 in1003.0 mb 0.00 in0.0 mm 0.00 in0.0 mm 0.00 in0.0 mm
12:10 AM 29.2°F-1.6°C -47.9°F-44.4°C 1% 3.4 mph W5.5 kmh W 11.0 mph17.7 kmh 29.62 in1003.0 mb 0.00 in0.0 mm 0.00 in0.0 mm 0.00 in0.0 mm
12:09 AM 29.2°F-1.6°C -47.9°F-44.4°C 1% 4.1 mph NW6.6 kmh NW 10.2 mph16.4 kmh 29.62 in1003.0 mb 0.00 in0.0 mm 0.00 in0.0 mm 0.00 in0.0 mm
12:08 AM 29.2°F-1.6°C -47.9°F-44.4°C 1% 5.2 mph WNW8.4 kmh WNW 10.2 mph16.4 kmh 29.62 in1003.0 mb 0.00 in0.0 mm 0.00 in0.0 mm 0.00 in0.0 mm
12:07 AM 29.2°F-1.6°C -47.9°F-44.4°C 1% 4.5 mph W7.2 kmh W 10.2 mph16.4 kmh 29.62 in1003.0 mb 0.00 in0.0 mm 0.00 in0.0 mm 0.00 in0.0 mm
12:06 AM 29.2°F-1.6°C -47.9°F-44.4°C 1% 2.6 mph WSW4.2 kmh WSW 8.2 mph13.2 kmh 29.62 in1003.0 mb 0.00 in0.0 mm 0.00 in0.0 mm 0.00 in0.0 mm
12:05 AM 29.2°F-1.6°C -47.9°F-44.4°C 1% 2.7 mph WSW4.3 kmh WSW 8.9 mph14.3 kmh 29.62 in1003.0 mb 0.00 in0.0 mm 0.00 in0.0 mm 0.00 in0.0 mm
12:04 AM 29.2°F-1.6°C -47.9°F-44.4°C 1% 5.1 mph W8.2 kmh W 8.9 mph14.3 kmh 29.62 in1003.0 mb 0.00 in0.0 mm 0.00 in0.0 mm 0.00 in0.0 mm
12:03 AM 29.2°F-1.6°C -47.9°F-44.4°C 1% 3.5 mph W5.6 kmh W 8.9 mph14.3 kmh 29.62 in1003.0 mb 0.00 in0.0 mm 0.00 in0.0 mm 0.00 in0.0 mm
12:02 AM 29.2°F-1.6°C -47.9°F-44.4°C 1% 1.9 mph W3.1 kmh W 8.9 mph14.3 kmh 29.62 in1003.0 mb 0.00 in0.0 mm 0.00 in0.0 mm 0.00 in0.0 mm
12:01 AM 29.2°F-1.6°C -47.9°F-44.4°C 1% 1.5 mph W2.4 kmh W 8.9 mph14.3 kmh 29.62 in1003.0 mb 0.00 in0.0 mm 0.00 in0.0 mm 0.00 in0.0 mm
12:00 AM 29.2°F-1.6°C -47.9°F-44.4°C 1% 1.7 mph W2.7 kmh W 8.9 mph14.3 kmh 29.62 in1003.0 mb 0.00 in0.0 mm 0.00 in0.0 mm 0.00 in0.0 mm